<?xml version="1.0" encoding="UTF-8" standalone="no" ?>
<gpx xmlns="http://www.topografix.com/GPX/1/1" xmlns:xsi="http://www.w3.org/2001/XMLSchema-instance" xsi:schemaLocation="http://www.topografix.com/GPX/1/1 http://www.topografix.com/GPX/1/1/gpx.xsd" version="1.1" creator="VisuGPX - https://www.visugpx.com">
  <metadata>
    <name>Carnac</name>
  </metadata>
  <trk>
    <name><![CDATA[Carnac_1]]></name>
    <trkseg>
      <trkpt lat="47.58493" lon="-3.07595">
        <ele>-2.75</ele>
        <time>2022-05-19T11:31:10Z</time>
      </trkpt>
      <trkpt lat="47.58492" lon="-3.07594">
        <ele>0.62</ele>
        <time>2022-05-19T11:31:14Z</time>
      </trkpt>
      <trkpt lat="47.58492" lon="-3.07592">
        <ele>3.5</ele>
        <time>2022-05-19T11:31:18Z</time>
      </trkpt>
      <trkpt lat="47.58493" lon="-3.07591">
        <ele>6.39</ele>
        <time>2022-05-19T11:31:23Z</time>
      </trkpt>
      <trkpt lat="47.58493" lon="-3.07593">
        <ele>7.35</ele>
        <time>2022-05-19T11:31:25Z</time>
      </trkpt>
      <trkpt lat="47.58492" lon="-3.07595">
        <ele>10.71</ele>
        <time>2022-05-19T11:31:34Z</time>
      </trkpt>
      <trkpt lat="47.58492" lon="-3.07597">
        <ele>14.08</ele>
        <time>2022-05-19T11:31:42Z</time>
      </trkpt>
      <trkpt lat="47.58491" lon="-3.076">
        <ele>16.96</ele>
        <time>2022-05-19T11:31:58Z</time>
      </trkpt>
      <trkpt lat="47.58496" lon="-3.07596">
        <ele>16.96</ele>
        <time>2022-05-19T11:32:31Z</time>
      </trkpt>
      <trkpt lat="47.58502" lon="-3.0759">
        <ele>16.48</ele>
        <time>2022-05-19T11:33:13Z</time>
      </trkpt>
      <trkpt lat="47.58502" lon="-3.0759">
        <ele>16.48</ele>
        <time>2022-05-19T11:33:38Z</time>
      </trkpt>
      <trkpt lat="47.58502" lon="-3.07591">
        <ele>16.48</ele>
        <time>2022-05-19T11:33:41Z</time>
      </trkpt>
      <trkpt lat="47.58496" lon="-3.07605">
        <ele>16.48</ele>
        <time>2022-05-19T11:33:58Z</time>
      </trkpt>
      <trkpt lat="47.58495" lon="-3.07607">
        <ele>16.96</ele>
        <time>2022-05-19T11:34:23Z</time>
      </trkpt>
      <trkpt lat="47.58494" lon="-3.07607">
        <ele>16.96</ele>
        <time>2022-05-19T11:35:01Z</time>
      </trkpt>
      <trkpt lat="47.58496" lon="-3.07605">
        <ele>17.44</ele>
        <time>2022-05-19T11:35:08Z</time>
      </trkpt>
      <trkpt lat="47.58521" lon="-3.07598">
        <ele>16.96</ele>
        <time>2022-05-19T11:35:27Z</time>
      </trkpt>
      <trkpt lat="47.58532" lon="-3.07607">
        <ele>17.92</ele>
        <time>2022-05-19T11:35:41Z</time>
      </trkpt>
      <trkpt lat="47.5854" lon="-3.07616">
        <ele>17.92</ele>
        <time>2022-05-19T11:35:56Z</time>
      </trkpt>
      <trkpt lat="47.58543" lon="-3.07628">
        <ele>17.92</ele>
        <time>2022-05-19T11:36:10Z</time>
      </trkpt>
      <trkpt lat="47.58544" lon="-3.0763">
        <ele>17.92</ele>
        <time>2022-05-19T11:36:15Z</time>
      </trkpt>
      <trkpt lat="47.58548" lon="-3.07636">
        <ele>17.92</ele>
        <time>2022-05-19T11:36:26Z</time>
      </trkpt>
      <trkpt lat="47.58551" lon="-3.0764">
        <ele>16.96</ele>
        <time>2022-05-19T11:36:31Z</time>
      </trkpt>
      <trkpt lat="47.58567" lon="-3.0764">
        <ele>17.44</ele>
        <time>2022-05-19T11:36:41Z</time>
      </trkpt>
      <trkpt lat="47.58589" lon="-3.07637">
        <ele>17.44</ele>
        <time>2022-05-19T11:36:58Z</time>
      </trkpt>
      <trkpt lat="47.58592" lon="-3.07637">
        <ele>16.96</ele>
        <time>2022-05-19T11:37:01Z</time>
      </trkpt>
      <trkpt lat="47.58596" lon="-3.07639">
        <ele>16.96</ele>
        <time>2022-05-19T11:37:05Z</time>
      </trkpt>
      <trkpt lat="47.58609" lon="-3.07653">
        <ele>16.48</ele>
        <time>2022-05-19T11:37:19Z</time>
      </trkpt>
      <trkpt lat="47.58615" lon="-3.07659">
        <ele>16.96</ele>
        <time>2022-05-19T11:37:33Z</time>
      </trkpt>
      <trkpt lat="47.58611" lon="-3.07659">
        <ele>16.96</ele>
        <time>2022-05-19T11:37:46Z</time>
      </trkpt>
      <trkpt lat="47.5861" lon="-3.07658">
        <ele>16.96</ele>
        <time>2022-05-19T11:38:07Z</time>
      </trkpt>
      <trkpt lat="47.58611" lon="-3.07655">
        <ele>16.48</ele>
        <time>2022-05-19T11:38:24Z</time>
      </trkpt>
      <trkpt lat="47.58614" lon="-3.07637">
        <ele>16.96</ele>
        <time>2022-05-19T11:38:39Z</time>
      </trkpt>
      <trkpt lat="47.58614" lon="-3.07637">
        <ele>16.96</ele>
        <time>2022-05-19T11:38:40Z</time>
      </trkpt>
      <trkpt lat="47.58616" lon="-3.07633">
        <ele>16.96</ele>
        <time>2022-05-19T11:38:43Z</time>
      </trkpt>
      <trkpt lat="47.58619" lon="-3.07625">
        <ele>16.48</ele>
        <time>2022-05-19T11:38:48Z</time>
      </trkpt>
      <trkpt lat="47.58628" lon="-3.07604">
        <ele>17.92</ele>
        <time>2022-05-19T11:39:06Z</time>
      </trkpt>
      <trkpt lat="47.58634" lon="-3.07596">
        <ele>17.92</ele>
        <time>2022-05-19T11:39:14Z</time>
      </trkpt>
      <trkpt lat="47.58649" lon="-3.07581">
        <ele>18.88</ele>
        <time>2022-05-19T11:39:32Z</time>
      </trkpt>
      <trkpt lat="47.58658" lon="-3.07567">
        <ele>19.36</ele>
        <time>2022-05-19T11:39:47Z</time>
      </trkpt>
      <trkpt lat="47.58667" lon="-3.07548">
        <ele>19.36</ele>
        <time>2022-05-19T11:40:05Z</time>
      </trkpt>
      <trkpt lat="47.58676" lon="-3.07529">
        <ele>20.32</ele>
        <time>2022-05-19T11:40:22Z</time>
      </trkpt>
      <trkpt lat="47.5868" lon="-3.0752">
        <ele>21.29</ele>
        <time>2022-05-19T11:40:32Z</time>
      </trkpt>
      <trkpt lat="47.58687" lon="-3.07504">
        <ele>21.29</ele>
        <time>2022-05-19T11:40:45Z</time>
      </trkpt>
      <trkpt lat="47.58695" lon="-3.07492">
        <ele>23.21</ele>
        <time>2022-05-19T11:40:58Z</time>
      </trkpt>
      <trkpt lat="47.58704" lon="-3.07485">
        <ele>24.17</ele>
        <time>2022-05-19T11:41:11Z</time>
      </trkpt>
      <trkpt lat="47.58719" lon="-3.07497">
        <ele>23.21</ele>
        <time>2022-05-19T11:41:27Z</time>
      </trkpt>
      <trkpt lat="47.5873" lon="-3.07502">
        <ele>23.21</ele>
        <time>2022-05-19T11:41:37Z</time>
      </trkpt>
      <trkpt lat="47.58742" lon="-3.0749">
        <ele>24.65</ele>
        <time>2022-05-19T11:41:51Z</time>
      </trkpt>
      <trkpt lat="47.58751" lon="-3.07475">
        <ele>25.61</ele>
        <time>2022-05-19T11:42:05Z</time>
      </trkpt>
      <trkpt lat="47.5876" lon="-3.07461">
        <ele>27.05</ele>
        <time>2022-05-19T11:42:19Z</time>
      </trkpt>
      <trkpt lat="47.58765" lon="-3.07455">
        <ele>28.02</ele>
        <time>2022-05-19T11:42:25Z</time>
      </trkpt>
      <trkpt lat="47.58777" lon="-3.07444">
        <ele>28.5</ele>
        <time>2022-05-19T11:42:39Z</time>
      </trkpt>
      <trkpt lat="47.58778" lon="-3.07433">
        <ele>28.98</ele>
        <time>2022-05-19T11:42:51Z</time>
      </trkpt>
      <trkpt lat="47.58778" lon="-3.07432">
        <ele>30.9</ele>
        <time>2022-05-19T11:42:52Z</time>
      </trkpt>
      <trkpt lat="47.58773" lon="-3.07427">
        <ele>30.42</ele>
        <time>2022-05-19T11:42:58Z</time>
      </trkpt>
      <trkpt lat="47.58761" lon="-3.07407">
        <ele>31.86</ele>
        <time>2022-05-19T11:43:17Z</time>
      </trkpt>
      <trkpt lat="47.58756" lon="-3.07392">
        <ele>31.86</ele>
        <time>2022-05-19T11:43:30Z</time>
      </trkpt>
      <trkpt lat="47.58756" lon="-3.07386">
        <ele>32.34</ele>
        <time>2022-05-19T11:43:34Z</time>
      </trkpt>
      <trkpt lat="47.58761" lon="-3.0738">
        <ele>32.82</ele>
        <time>2022-05-19T11:43:40Z</time>
      </trkpt>
      <trkpt lat="47.58762" lon="-3.07378">
        <ele>33.3</ele>
        <time>2022-05-19T11:43:42Z</time>
      </trkpt>
      <trkpt lat="47.58776" lon="-3.07374">
        <ele>35.23</ele>
        <time>2022-05-19T11:43:56Z</time>
      </trkpt>
      <trkpt lat="47.58778" lon="-3.07371">
        <ele>36.19</ele>
        <time>2022-05-19T11:43:59Z</time>
      </trkpt>
      <trkpt lat="47.58786" lon="-3.07358">
        <ele>38.59</ele>
        <time>2022-05-19T11:44:12Z</time>
      </trkpt>
      <trkpt lat="47.58795" lon="-3.07346">
        <ele>39.55</ele>
        <time>2022-05-19T11:44:27Z</time>
      </trkpt>
      <trkpt lat="47.58801" lon="-3.07342">
        <ele>40.99</ele>
        <time>2022-05-19T11:44:39Z</time>
      </trkpt>
      <trkpt lat="47.58801" lon="-3.07347">
        <ele>41.95</ele>
        <time>2022-05-19T11:44:52Z</time>
      </trkpt>
      <trkpt lat="47.58801" lon="-3.07348">
        <ele>41.47</ele>
        <time>2022-05-19T11:45:16Z</time>
      </trkpt>
      <trkpt lat="47.58799" lon="-3.07352">
        <ele>40.99</ele>
        <time>2022-05-19T11:45:37Z</time>
      </trkpt>
      <trkpt lat="47.588" lon="-3.07358">
        <ele>41.47</ele>
        <time>2022-05-19T11:45:59Z</time>
      </trkpt>
      <trkpt lat="47.58799" lon="-3.07359">
        <ele>41.95</ele>
        <time>2022-05-19T11:46:24Z</time>
      </trkpt>
      <trkpt lat="47.58796" lon="-3.0736">
        <ele>41.47</ele>
        <time>2022-05-19T11:46:39Z</time>
      </trkpt>
      <trkpt lat="47.58797" lon="-3.07356">
        <ele>41.47</ele>
        <time>2022-05-19T11:47:12Z</time>
      </trkpt>
      <trkpt lat="47.58796" lon="-3.07357">
        <ele>40.99</ele>
        <time>2022-05-19T11:47:31Z</time>
      </trkpt>
      <trkpt lat="47.58795" lon="-3.07362">
        <ele>40.51</ele>
        <time>2022-05-19T11:47:58Z</time>
      </trkpt>
      <trkpt lat="47.58795" lon="-3.07361">
        <ele>40.99</ele>
        <time>2022-05-19T11:48:27Z</time>
      </trkpt>
      <trkpt lat="47.58794" lon="-3.07363">
        <ele>41.47</ele>
        <time>2022-05-19T11:49:05Z</time>
      </trkpt>
      <trkpt lat="47.58794" lon="-3.07363">
        <ele>40.51</ele>
        <time>2022-05-19T11:49:22Z</time>
      </trkpt>
      <trkpt lat="47.58796" lon="-3.07361">
        <ele>40.99</ele>
        <time>2022-05-19T11:49:43Z</time>
      </trkpt>
      <trkpt lat="47.58794" lon="-3.07364">
        <ele>40.51</ele>
        <time>2022-05-19T11:50:10Z</time>
      </trkpt>
      <trkpt lat="47.58793" lon="-3.07367">
        <ele>40.51</ele>
        <time>2022-05-19T11:50:22Z</time>
      </trkpt>
      <trkpt lat="47.58792" lon="-3.07382">
        <ele>41.47</ele>
        <time>2022-05-19T11:50:40Z</time>
      </trkpt>
      <trkpt lat="47.58793" lon="-3.0738">
        <ele>41.47</ele>
        <time>2022-05-19T11:51:07Z</time>
      </trkpt>
      <trkpt lat="47.58793" lon="-3.07384">
        <ele>40.51</ele>
        <time>2022-05-19T11:51:28Z</time>
      </trkpt>
      <trkpt lat="47.58795" lon="-3.07372">
        <ele>40.51</ele>
        <time>2022-05-19T11:51:42Z</time>
      </trkpt>
      <trkpt lat="47.58796" lon="-3.07375">
        <ele>40.03</ele>
        <time>2022-05-19T11:52:04Z</time>
      </trkpt>
      <trkpt lat="47.58792" lon="-3.07378">
        <ele>39.55</ele>
        <time>2022-05-19T11:52:20Z</time>
      </trkpt>
      <trkpt lat="47.58791" lon="-3.0738">
        <ele>40.51</ele>
        <time>2022-05-19T11:52:42Z</time>
      </trkpt>
      <trkpt lat="47.58795" lon="-3.07375">
        <ele>40.51</ele>
        <time>2022-05-19T11:52:57Z</time>
      </trkpt>
      <trkpt lat="47.58799" lon="-3.07378">
        <ele>40.51</ele>
        <time>2022-05-19T11:53:21Z</time>
      </trkpt>
      <trkpt lat="47.58798" lon="-3.07381">
        <ele>40.03</ele>
        <time>2022-05-19T11:53:40Z</time>
      </trkpt>
      <trkpt lat="47.58795" lon="-3.07376">
        <ele>40.03</ele>
        <time>2022-05-19T11:54:03Z</time>
      </trkpt>
      <trkpt lat="47.58795" lon="-3.0737">
        <ele>40.03</ele>
        <time>2022-05-19T11:54:25Z</time>
      </trkpt>
      <trkpt lat="47.58796" lon="-3.07363">
        <ele>40.03</ele>
        <time>2022-05-19T11:54:31Z</time>
      </trkpt>
      <trkpt lat="47.58797" lon="-3.07344">
        <ele>39.55</ele>
        <time>2022-05-19T11:54:47Z</time>
      </trkpt>
      <trkpt lat="47.5879" lon="-3.0735">
        <ele>37.63</ele>
        <time>2022-05-19T11:54:59Z</time>
      </trkpt>
      <trkpt lat="47.58782" lon="-3.07363">
        <ele>35.71</ele>
        <time>2022-05-19T11:55:10Z</time>
      </trkpt>
      <trkpt lat="47.5877" lon="-3.07377">
        <ele>33.3</ele>
        <time>2022-05-19T11:55:25Z</time>
      </trkpt>
      <trkpt lat="47.58759" lon="-3.07378">
        <ele>31.38</ele>
        <time>2022-05-19T11:55:38Z</time>
      </trkpt>
      <trkpt lat="47.58762" lon="-3.07375">
        <ele>31.38</ele>
        <time>2022-05-19T11:55:58Z</time>
      </trkpt>
      <trkpt lat="47.58761" lon="-3.0737">
        <ele>31.86</ele>
        <time>2022-05-19T11:56:20Z</time>
      </trkpt>
      <trkpt lat="47.5876" lon="-3.07364">
        <ele>31.38</ele>
        <time>2022-05-19T11:56:34Z</time>
      </trkpt>
      <trkpt lat="47.58763" lon="-3.07363">
        <ele>31.86</ele>
        <time>2022-05-19T11:56:41Z</time>
      </trkpt>
      <trkpt lat="47.58768" lon="-3.07364">
        <ele>32.34</ele>
        <time>2022-05-19T11:56:56Z</time>
      </trkpt>
      <trkpt lat="47.58769" lon="-3.07365">
        <ele>31.86</ele>
        <time>2022-05-19T11:57:34Z</time>
      </trkpt>
      <trkpt lat="47.58768" lon="-3.07372">
        <ele>31.86</ele>
        <time>2022-05-19T11:57:49Z</time>
      </trkpt>
      <trkpt lat="47.58766" lon="-3.07374">
        <ele>31.86</ele>
        <time>2022-05-19T11:58:13Z</time>
      </trkpt>
      <trkpt lat="47.58762" lon="-3.07367">
        <ele>31.38</ele>
        <time>2022-05-19T11:58:34Z</time>
      </trkpt>
      <trkpt lat="47.58761" lon="-3.07362">
        <ele>31.86</ele>
        <time>2022-05-19T11:58:37Z</time>
      </trkpt>
      <trkpt lat="47.58763" lon="-3.07345">
        <ele>31.86</ele>
        <time>2022-05-19T11:58:52Z</time>
      </trkpt>
      <trkpt lat="47.58765" lon="-3.07339">
        <ele>32.34</ele>
        <time>2022-05-19T11:59:08Z</time>
      </trkpt>
      <trkpt lat="47.58767" lon="-3.07326">
        <ele>31.86</ele>
        <time>2022-05-19T11:59:18Z</time>
      </trkpt>
      <trkpt lat="47.58773" lon="-3.07305">
        <ele>31.86</ele>
        <time>2022-05-19T11:59:33Z</time>
      </trkpt>
      <trkpt lat="47.58784" lon="-3.07276">
        <ele>30.9</ele>
        <time>2022-05-19T11:59:54Z</time>
      </trkpt>
      <trkpt lat="47.58785" lon="-3.07275">
        <ele>30.9</ele>
        <time>2022-05-19T11:59:55Z</time>
      </trkpt>
      <trkpt lat="47.58804" lon="-3.07264">
        <ele>31.38</ele>
        <time>2022-05-19T12:00:12Z</time>
      </trkpt>
      <trkpt lat="47.58821" lon="-3.07265">
        <ele>30.9</ele>
        <time>2022-05-19T12:00:26Z</time>
      </trkpt>
      <trkpt lat="47.58827" lon="-3.07265">
        <ele>30.42</ele>
        <time>2022-05-19T12:00:31Z</time>
      </trkpt>
      <trkpt lat="47.58835" lon="-3.07264">
        <ele>28.98</ele>
        <time>2022-05-19T12:00:47Z</time>
      </trkpt>
      <trkpt lat="47.58835" lon="-3.07264">
        <ele>28.98</ele>
        <time>2022-05-19T12:01:06Z</time>
      </trkpt>
      <trkpt lat="47.58843" lon="-3.0726">
        <ele>28.5</ele>
        <time>2022-05-19T12:01:13Z</time>
      </trkpt>
      <trkpt lat="47.58856" lon="-3.07253">
        <ele>27.53</ele>
        <time>2022-05-19T12:01:26Z</time>
      </trkpt>
      <trkpt lat="47.5887" lon="-3.07239">
        <ele>25.13</ele>
        <time>2022-05-19T12:01:43Z</time>
      </trkpt>
      <trkpt lat="47.58882" lon="-3.07225">
        <ele>23.21</ele>
        <time>2022-05-19T12:01:58Z</time>
      </trkpt>
      <trkpt lat="47.58894" lon="-3.07211">
        <ele>21.29</ele>
        <time>2022-05-19T12:02:14Z</time>
      </trkpt>
      <trkpt lat="47.58901" lon="-3.07208">
        <ele>20.32</ele>
        <time>2022-05-19T12:02:24Z</time>
      </trkpt>
      <trkpt lat="47.58916" lon="-3.07205">
        <ele>18.4</ele>
        <time>2022-05-19T12:02:40Z</time>
      </trkpt>
      <trkpt lat="47.5893" lon="-3.07197">
        <ele>17.44</ele>
        <time>2022-05-19T12:02:54Z</time>
      </trkpt>
      <trkpt lat="47.58942" lon="-3.07207">
        <ele>16.48</ele>
        <time>2022-05-19T12:03:08Z</time>
      </trkpt>
      <trkpt lat="47.58946" lon="-3.07209">
        <ele>15.04</ele>
        <time>2022-05-19T12:03:14Z</time>
      </trkpt>
      <trkpt lat="47.58954" lon="-3.07211">
        <ele>15.04</ele>
        <time>2022-05-19T12:03:23Z</time>
      </trkpt>
      <trkpt lat="47.58967" lon="-3.0721">
        <ele>14.56</ele>
        <time>2022-05-19T12:03:36Z</time>
      </trkpt>
      <trkpt lat="47.58974" lon="-3.07208">
        <ele>13.12</ele>
        <time>2022-05-19T12:03:42Z</time>
      </trkpt>
      <trkpt lat="47.58987" lon="-3.07212">
        <ele>13.12</ele>
        <time>2022-05-19T12:03:55Z</time>
      </trkpt>
      <trkpt lat="47.5899" lon="-3.07214">
        <ele>12.15</ele>
        <time>2022-05-19T12:03:58Z</time>
      </trkpt>
      <trkpt lat="47.59005" lon="-3.07207">
        <ele>11.67</ele>
        <time>2022-05-19T12:04:14Z</time>
      </trkpt>
      <trkpt lat="47.59006" lon="-3.07206">
        <ele>12.15</ele>
        <time>2022-05-19T12:04:15Z</time>
      </trkpt>
      <trkpt lat="47.59013" lon="-3.07193">
        <ele>11.19</ele>
        <time>2022-05-19T12:04:31Z</time>
      </trkpt>
      <trkpt lat="47.59012" lon="-3.0719">
        <ele>11.67</ele>
        <time>2022-05-19T12:04:52Z</time>
      </trkpt>
      <trkpt lat="47.59012" lon="-3.0719">
        <ele>11.19</ele>
        <time>2022-05-19T12:05:14Z</time>
      </trkpt>
      <trkpt lat="47.59014" lon="-3.07192">
        <ele>10.71</ele>
        <time>2022-05-19T12:05:27Z</time>
      </trkpt>
      <trkpt lat="47.59016" lon="-3.072">
        <ele>11.19</ele>
        <time>2022-05-19T12:05:41Z</time>
      </trkpt>
      <trkpt lat="47.59012" lon="-3.07188">
        <ele>11.19</ele>
        <time>2022-05-19T12:05:57Z</time>
      </trkpt>
      <trkpt lat="47.59016" lon="-3.07173">
        <ele>10.23</ele>
        <time>2022-05-19T12:06:14Z</time>
      </trkpt>
      <trkpt lat="47.59019" lon="-3.07157">
        <ele>9.75</ele>
        <time>2022-05-19T12:06:25Z</time>
      </trkpt>
      <trkpt lat="47.59021" lon="-3.07125">
        <ele>9.75</ele>
        <time>2022-05-19T12:06:42Z</time>
      </trkpt>
      <trkpt lat="47.59021" lon="-3.07119">
        <ele>9.75</ele>
        <time>2022-05-19T12:06:45Z</time>
      </trkpt>
      <trkpt lat="47.59015" lon="-3.07096">
        <ele>9.75</ele>
        <time>2022-05-19T12:06:59Z</time>
      </trkpt>
      <trkpt lat="47.59016" lon="-3.07087">
        <ele>9.75</ele>
        <time>2022-05-19T12:07:04Z</time>
      </trkpt>
      <trkpt lat="47.59024" lon="-3.07075">
        <ele>9.75</ele>
        <time>2022-05-19T12:07:15Z</time>
      </trkpt>
      <trkpt lat="47.59038" lon="-3.07073">
        <ele>9.75</ele>
        <time>2022-05-19T12:07:30Z</time>
      </trkpt>
      <trkpt lat="47.59051" lon="-3.07072">
        <ele>9.27</ele>
        <time>2022-05-19T12:07:41Z</time>
      </trkpt>
      <trkpt lat="47.59062" lon="-3.07082">
        <ele>9.75</ele>
        <time>2022-05-19T12:07:53Z</time>
      </trkpt>
      <trkpt lat="47.59076" lon="-3.07094">
        <ele>9.27</ele>
        <time>2022-05-19T12:08:07Z</time>
      </trkpt>
      <trkpt lat="47.59092" lon="-3.07106">
        <ele>9.75</ele>
        <time>2022-05-19T12:08:19Z</time>
      </trkpt>
      <trkpt lat="47.59105" lon="-3.07114">
        <ele>9.27</ele>
        <time>2022-05-19T12:08:33Z</time>
      </trkpt>
      <trkpt lat="47.59106" lon="-3.07116">
        <ele>8.79</ele>
        <time>2022-05-19T12:08:35Z</time>
      </trkpt>
      <trkpt lat="47.59123" lon="-3.07129">
        <ele>8.79</ele>
        <time>2022-05-19T12:08:49Z</time>
      </trkpt>
      <trkpt lat="47.59134" lon="-3.07141">
        <ele>9.75</ele>
        <time>2022-05-19T12:09:02Z</time>
      </trkpt>
      <trkpt lat="47.59143" lon="-3.07156">
        <ele>10.23</ele>
        <time>2022-05-19T12:09:15Z</time>
      </trkpt>
      <trkpt lat="47.59144" lon="-3.07159">
        <ele>10.23</ele>
        <time>2022-05-19T12:09:17Z</time>
      </trkpt>
      <trkpt lat="47.5916" lon="-3.07174">
        <ele>10.23</ele>
        <time>2022-05-19T12:09:31Z</time>
      </trkpt>
      <trkpt lat="47.5917" lon="-3.07191">
        <ele>11.67</ele>
        <time>2022-05-19T12:09:44Z</time>
      </trkpt>
      <trkpt lat="47.59177" lon="-3.07204">
        <ele>11.67</ele>
        <time>2022-05-19T12:09:56Z</time>
      </trkpt>
      <trkpt lat="47.59185" lon="-3.07214">
        <ele>12.63</ele>
        <time>2022-05-19T12:10:03Z</time>
      </trkpt>
      <trkpt lat="47.59192" lon="-3.07221">
        <ele>13.12</ele>
        <time>2022-05-19T12:10:09Z</time>
      </trkpt>
      <trkpt lat="47.59206" lon="-3.07234">
        <ele>12.15</ele>
        <time>2022-05-19T12:10:24Z</time>
      </trkpt>
      <trkpt lat="47.59215" lon="-3.07241">
        <ele>13.6</ele>
        <time>2022-05-19T12:10:33Z</time>
      </trkpt>
      <trkpt lat="47.59232" lon="-3.07251">
        <ele>12.15</ele>
        <time>2022-05-19T12:10:48Z</time>
      </trkpt>
      <trkpt lat="47.5924" lon="-3.07254">
        <ele>11.67</ele>
        <time>2022-05-19T12:10:54Z</time>
      </trkpt>
      <trkpt lat="47.5925" lon="-3.07256">
        <ele>12.63</ele>
        <time>2022-05-19T12:11:04Z</time>
      </trkpt>
      <trkpt lat="47.59252" lon="-3.07256">
        <ele>13.12</ele>
        <time>2022-05-19T12:11:06Z</time>
      </trkpt>
      <trkpt lat="47.59276" lon="-3.07262">
        <ele>11.67</ele>
        <time>2022-05-19T12:11:23Z</time>
      </trkpt>
      <trkpt lat="47.59279" lon="-3.07262">
        <ele>12.63</ele>
        <time>2022-05-19T12:11:26Z</time>
      </trkpt>
      <trkpt lat="47.59288" lon="-3.07265">
        <ele>12.63</ele>
        <time>2022-05-19T12:11:36Z</time>
      </trkpt>
      <trkpt lat="47.59296" lon="-3.07272">
        <ele>12.15</ele>
        <time>2022-05-19T12:11:46Z</time>
      </trkpt>
      <trkpt lat="47.59306" lon="-3.07277">
        <ele>12.63</ele>
        <time>2022-05-19T12:11:59Z</time>
      </trkpt>
      <trkpt lat="47.59316" lon="-3.07282">
        <ele>12.15</ele>
        <time>2022-05-19T12:12:13Z</time>
      </trkpt>
      <trkpt lat="47.59334" lon="-3.07293">
        <ele>12.63</ele>
        <time>2022-05-19T12:12:25Z</time>
      </trkpt>
      <trkpt lat="47.59344" lon="-3.07309">
        <ele>12.15</ele>
        <time>2022-05-19T12:12:39Z</time>
      </trkpt>
      <trkpt lat="47.59349" lon="-3.07314">
        <ele>11.67</ele>
        <time>2022-05-19T12:12:44Z</time>
      </trkpt>
      <trkpt lat="47.5936" lon="-3.07325">
        <ele>12.15</ele>
        <time>2022-05-19T12:12:56Z</time>
      </trkpt>
      <trkpt lat="47.59375" lon="-3.07335">
        <ele>13.12</ele>
        <time>2022-05-19T12:13:09Z</time>
      </trkpt>
      <trkpt lat="47.59391" lon="-3.07341">
        <ele>13.12</ele>
        <time>2022-05-19T12:13:21Z</time>
      </trkpt>
      <trkpt lat="47.59406" lon="-3.07348">
        <ele>14.56</ele>
        <time>2022-05-19T12:13:32Z</time>
      </trkpt>
      <trkpt lat="47.59412" lon="-3.07354">
        <ele>14.56</ele>
        <time>2022-05-19T12:13:38Z</time>
      </trkpt>
      <trkpt lat="47.59424" lon="-3.07375">
        <ele>15.04</ele>
        <time>2022-05-19T12:13:56Z</time>
      </trkpt>
      <trkpt lat="47.59435" lon="-3.07396">
        <ele>15.04</ele>
        <time>2022-05-19T12:14:13Z</time>
      </trkpt>
      <trkpt lat="47.59441" lon="-3.07409">
        <ele>14.08</ele>
        <time>2022-05-19T12:14:28Z</time>
      </trkpt>
      <trkpt lat="47.59448" lon="-3.07428">
        <ele>14.56</ele>
        <time>2022-05-19T12:14:42Z</time>
      </trkpt>
      <trkpt lat="47.59448" lon="-3.07429">
        <ele>13.6</ele>
        <time>2022-05-19T12:14:43Z</time>
      </trkpt>
      <trkpt lat="47.59448" lon="-3.07433">
        <ele>14.08</ele>
        <time>2022-05-19T12:14:45Z</time>
      </trkpt>
      <trkpt lat="47.5944" lon="-3.07456">
        <ele>14.08</ele>
        <time>2022-05-19T12:15:01Z</time>
      </trkpt>
      <trkpt lat="47.59439" lon="-3.0746">
        <ele>13.6</ele>
        <time>2022-05-19T12:15:03Z</time>
      </trkpt>
      <trkpt lat="47.59443" lon="-3.07486">
        <ele>15.04</ele>
        <time>2022-05-19T12:15:19Z</time>
      </trkpt>
      <trkpt lat="47.59427" lon="-3.07503">
        <ele>13.12</ele>
        <time>2022-05-19T12:15:34Z</time>
      </trkpt>
      <trkpt lat="47.59412" lon="-3.07514">
        <ele>14.56</ele>
        <time>2022-05-19T12:15:49Z</time>
      </trkpt>
      <trkpt lat="47.59399" lon="-3.07521">
        <ele>14.08</ele>
        <time>2022-05-19T12:16:03Z</time>
      </trkpt>
      <trkpt lat="47.59397" lon="-3.07521">
        <ele>14.08</ele>
        <time>2022-05-19T12:16:24Z</time>
      </trkpt>
      <trkpt lat="47.59392" lon="-3.07524">
        <ele>15.04</ele>
        <time>2022-05-19T12:16:34Z</time>
      </trkpt>
      <trkpt lat="47.5939" lon="-3.07527">
        <ele>15.04</ele>
        <time>2022-05-19T12:16:37Z</time>
      </trkpt>
      <trkpt lat="47.59385" lon="-3.07533">
        <ele>15.52</ele>
        <time>2022-05-19T12:16:42Z</time>
      </trkpt>
      <trkpt lat="47.59372" lon="-3.07546">
        <ele>16</ele>
        <time>2022-05-19T12:16:58Z</time>
      </trkpt>
      <trkpt lat="47.59372" lon="-3.07551">
        <ele>16</ele>
        <time>2022-05-19T12:17:16Z</time>
      </trkpt>
      <trkpt lat="47.59373" lon="-3.07555">
        <ele>17.44</ele>
        <time>2022-05-19T12:17:33Z</time>
      </trkpt>
      <trkpt lat="47.59374" lon="-3.07558">
        <ele>16</ele>
        <time>2022-05-19T12:17:35Z</time>
      </trkpt>
      <trkpt lat="47.59383" lon="-3.07587">
        <ele>16.96</ele>
        <time>2022-05-19T12:17:53Z</time>
      </trkpt>
      <trkpt lat="47.59382" lon="-3.07615">
        <ele>16.96</ele>
        <time>2022-05-19T12:18:09Z</time>
      </trkpt>
      <trkpt lat="47.59377" lon="-3.07639">
        <ele>18.4</ele>
        <time>2022-05-19T12:18:23Z</time>
      </trkpt>
      <trkpt lat="47.59374" lon="-3.0765">
        <ele>18.88</ele>
        <time>2022-05-19T12:18:30Z</time>
      </trkpt>
      <trkpt lat="47.59368" lon="-3.07677">
        <ele>18.88</ele>
        <time>2022-05-19T12:18:47Z</time>
      </trkpt>
      <trkpt lat="47.59361" lon="-3.07709">
        <ele>16.96</ele>
        <time>2022-05-19T12:19:05Z</time>
      </trkpt>
      <trkpt lat="47.59356" lon="-3.0774">
        <ele>19.84</ele>
        <time>2022-05-19T12:19:23Z</time>
      </trkpt>
      <trkpt lat="47.5935" lon="-3.07765">
        <ele>19.36</ele>
        <time>2022-05-19T12:19:39Z</time>
      </trkpt>
      <trkpt lat="47.59344" lon="-3.07794">
        <ele>19.36</ele>
        <time>2022-05-19T12:19:56Z</time>
      </trkpt>
      <trkpt lat="47.59335" lon="-3.07824">
        <ele>19.84</ele>
        <time>2022-05-19T12:20:15Z</time>
      </trkpt>
      <trkpt lat="47.59328" lon="-3.07851">
        <ele>19.36</ele>
        <time>2022-05-19T12:20:32Z</time>
      </trkpt>
      <trkpt lat="47.59317" lon="-3.07883">
        <ele>19.36</ele>
        <time>2022-05-19T12:20:53Z</time>
      </trkpt>
      <trkpt lat="47.59303" lon="-3.07922">
        <ele>19.84</ele>
        <time>2022-05-19T12:21:18Z</time>
      </trkpt>
      <trkpt lat="47.59296" lon="-3.0794">
        <ele>19.36</ele>
        <time>2022-05-19T12:21:30Z</time>
      </trkpt>
      <trkpt lat="47.59291" lon="-3.07952">
        <ele>18.88</ele>
        <time>2022-05-19T12:21:45Z</time>
      </trkpt>
      <trkpt lat="47.59291" lon="-3.07946">
        <ele>18.88</ele>
        <time>2022-05-19T12:22:14Z</time>
      </trkpt>
      <trkpt lat="47.59291" lon="-3.07954">
        <ele>18.88</ele>
        <time>2022-05-19T12:22:33Z</time>
      </trkpt>
      <trkpt lat="47.59293" lon="-3.07957">
        <ele>18.88</ele>
        <time>2022-05-19T12:23:00Z</time>
      </trkpt>
      <trkpt lat="47.59288" lon="-3.07959">
        <ele>18.88</ele>
        <time>2022-05-19T12:23:23Z</time>
      </trkpt>
      <trkpt lat="47.59284" lon="-3.07969">
        <ele>18.88</ele>
        <time>2022-05-19T12:23:36Z</time>
      </trkpt>
      <trkpt lat="47.59276" lon="-3.07997">
        <ele>17.92</ele>
        <time>2022-05-19T12:23:55Z</time>
      </trkpt>
      <trkpt lat="47.59268" lon="-3.08024">
        <ele>16.96</ele>
        <time>2022-05-19T12:24:12Z</time>
      </trkpt>
      <trkpt lat="47.59261" lon="-3.0803">
        <ele>17.92</ele>
        <time>2022-05-19T12:24:19Z</time>
      </trkpt>
      <trkpt lat="47.59259" lon="-3.08052">
        <ele>17.92</ele>
        <time>2022-05-19T12:24:32Z</time>
      </trkpt>
      <trkpt lat="47.59256" lon="-3.08083">
        <ele>17.92</ele>
        <time>2022-05-19T12:24:50Z</time>
      </trkpt>
      <trkpt lat="47.59249" lon="-3.08107">
        <ele>18.4</ele>
        <time>2022-05-19T12:25:06Z</time>
      </trkpt>
      <trkpt lat="47.59244" lon="-3.08129">
        <ele>17.92</ele>
        <time>2022-05-19T12:25:19Z</time>
      </trkpt>
      <trkpt lat="47.5924" lon="-3.08156">
        <ele>19.36</ele>
        <time>2022-05-19T12:25:35Z</time>
      </trkpt>
      <trkpt lat="47.59232" lon="-3.08186">
        <ele>19.36</ele>
        <time>2022-05-19T12:25:53Z</time>
      </trkpt>
      <trkpt lat="47.59224" lon="-3.08216">
        <ele>19.84</ele>
        <time>2022-05-19T12:26:12Z</time>
      </trkpt>
      <trkpt lat="47.59213" lon="-3.0824">
        <ele>19.84</ele>
        <time>2022-05-19T12:26:28Z</time>
      </trkpt>
      <trkpt lat="47.59202" lon="-3.08263">
        <ele>19.36</ele>
        <time>2022-05-19T12:26:45Z</time>
      </trkpt>
      <trkpt lat="47.59191" lon="-3.08278">
        <ele>20.32</ele>
        <time>2022-05-19T12:26:56Z</time>
      </trkpt>
      <trkpt lat="47.59173" lon="-3.08277">
        <ele>20.81</ele>
        <time>2022-05-19T12:27:12Z</time>
      </trkpt>
      <trkpt lat="47.59155" lon="-3.08273">
        <ele>19.84</ele>
        <time>2022-05-19T12:27:27Z</time>
      </trkpt>
      <trkpt lat="47.59152" lon="-3.08262">
        <ele>20.32</ele>
        <time>2022-05-19T12:27:43Z</time>
      </trkpt>
      <trkpt lat="47.59151" lon="-3.08259">
        <ele>20.32</ele>
        <time>2022-05-19T12:28:01Z</time>
      </trkpt>
      <trkpt lat="47.59152" lon="-3.08254">
        <ele>19.84</ele>
        <time>2022-05-19T12:28:23Z</time>
      </trkpt>
      <trkpt lat="47.59149" lon="-3.08255">
        <ele>20.32</ele>
        <time>2022-05-19T12:28:48Z</time>
      </trkpt>
      <trkpt lat="47.5915" lon="-3.0825">
        <ele>19.84</ele>
        <time>2022-05-19T12:28:51Z</time>
      </trkpt>
      <trkpt lat="47.59149" lon="-3.08246">
        <ele>20.81</ele>
        <time>2022-05-19T12:28:53Z</time>
      </trkpt>
      <trkpt lat="47.59149" lon="-3.08241">
        <ele>20.81</ele>
        <time>2022-05-19T12:28:55Z</time>
      </trkpt>
      <trkpt lat="47.59139" lon="-3.08219">
        <ele>21.29</ele>
        <time>2022-05-19T12:29:18Z</time>
      </trkpt>
      <trkpt lat="47.59146" lon="-3.08258">
        <ele>20.81</ele>
        <time>2022-05-19T12:42:40Z</time>
      </trkpt>
      <trkpt lat="47.59145" lon="-3.08262">
        <ele>20.32</ele>
        <time>2022-05-19T12:42:55Z</time>
      </trkpt>
      <trkpt lat="47.59144" lon="-3.08262">
        <ele>20.32</ele>
        <time>2022-05-19T12:43:16Z</time>
      </trkpt>
      <trkpt lat="47.59149" lon="-3.08272">
        <ele>20.81</ele>
        <time>2022-05-19T12:43:34Z</time>
      </trkpt>
      <trkpt lat="47.59152" lon="-3.08274">
        <ele>21.29</ele>
        <time>2022-05-19T12:43:50Z</time>
      </trkpt>
      <trkpt lat="47.59152" lon="-3.08277">
        <ele>20.81</ele>
        <time>2022-05-19T12:44:05Z</time>
      </trkpt>
      <trkpt lat="47.59152" lon="-3.08279">
        <ele>20.32</ele>
        <time>2022-05-19T12:44:20Z</time>
      </trkpt>
      <trkpt lat="47.5915" lon="-3.0828">
        <ele>19.84</ele>
        <time>2022-05-19T12:44:34Z</time>
      </trkpt>
      <trkpt lat="47.59147" lon="-3.08274">
        <ele>20.32</ele>
        <time>2022-05-19T12:44:46Z</time>
      </trkpt>
      <trkpt lat="47.59151" lon="-3.08282">
        <ele>19.84</ele>
        <time>2022-05-19T12:45:00Z</time>
      </trkpt>
      <trkpt lat="47.59152" lon="-3.08286">
        <ele>20.32</ele>
        <time>2022-05-19T12:45:14Z</time>
      </trkpt>
      <trkpt lat="47.59157" lon="-3.08287">
        <ele>20.32</ele>
        <time>2022-05-19T12:45:31Z</time>
      </trkpt>
      <trkpt lat="47.59154" lon="-3.0829">
        <ele>20.32</ele>
        <time>2022-05-19T12:45:59Z</time>
      </trkpt>
      <trkpt lat="47.59152" lon="-3.08288">
        <ele>20.81</ele>
        <time>2022-05-19T12:46:23Z</time>
      </trkpt>
      <trkpt lat="47.59153" lon="-3.0829">
        <ele>20.32</ele>
        <time>2022-05-19T12:46:49Z</time>
      </trkpt>
      <trkpt lat="47.59151" lon="-3.08286">
        <ele>20.81</ele>
        <time>2022-05-19T12:47:14Z</time>
      </trkpt>
      <trkpt lat="47.59151" lon="-3.08286">
        <ele>20.32</ele>
        <time>2022-05-19T12:47:35Z</time>
      </trkpt>
      <trkpt lat="47.59156" lon="-3.0829">
        <ele>20.32</ele>
        <time>2022-05-19T12:47:53Z</time>
      </trkpt>
      <trkpt lat="47.59158" lon="-3.08293">
        <ele>20.81</ele>
        <time>2022-05-19T12:47:56Z</time>
      </trkpt>
      <trkpt lat="47.59169" lon="-3.08313">
        <ele>20.32</ele>
        <time>2022-05-19T12:48:14Z</time>
      </trkpt>
      <trkpt lat="47.59176" lon="-3.08329">
        <ele>21.29</ele>
        <time>2022-05-19T12:48:31Z</time>
      </trkpt>
      <trkpt lat="47.59176" lon="-3.08339">
        <ele>21.29</ele>
        <time>2022-05-19T12:48:47Z</time>
      </trkpt>
      <trkpt lat="47.59175" lon="-3.08339">
        <ele>21.29</ele>
        <time>2022-05-19T12:49:16Z</time>
      </trkpt>
      <trkpt lat="47.59171" lon="-3.08337">
        <ele>20.81</ele>
        <time>2022-05-19T12:49:49Z</time>
      </trkpt>
      <trkpt lat="47.59173" lon="-3.08343">
        <ele>21.29</ele>
        <time>2022-05-19T12:49:59Z</time>
      </trkpt>
      <trkpt lat="47.59166" lon="-3.08345">
        <ele>20.32</ele>
        <time>2022-05-19T12:50:07Z</time>
      </trkpt>
      <trkpt lat="47.59163" lon="-3.08343">
        <ele>19.36</ele>
        <time>2022-05-19T12:50:12Z</time>
      </trkpt>
      <trkpt lat="47.59161" lon="-3.08346">
        <ele>19.84</ele>
        <time>2022-05-19T12:50:15Z</time>
      </trkpt>
      <trkpt lat="47.59151" lon="-3.08366">
        <ele>19.36</ele>
        <time>2022-05-19T12:50:31Z</time>
      </trkpt>
      <trkpt lat="47.59132" lon="-3.08394">
        <ele>18.4</ele>
        <time>2022-05-19T12:50:53Z</time>
      </trkpt>
      <trkpt lat="47.59118" lon="-3.08417">
        <ele>17.92</ele>
        <time>2022-05-19T12:51:10Z</time>
      </trkpt>
      <trkpt lat="47.591" lon="-3.08444">
        <ele>17.44</ele>
        <time>2022-05-19T12:51:32Z</time>
      </trkpt>
      <trkpt lat="47.59081" lon="-3.08465">
        <ele>16.48</ele>
        <time>2022-05-19T12:51:51Z</time>
      </trkpt>
      <trkpt lat="47.59057" lon="-3.08479">
        <ele>16.48</ele>
        <time>2022-05-19T12:52:13Z</time>
      </trkpt>
      <trkpt lat="47.59047" lon="-3.08494">
        <ele>16.48</ele>
        <time>2022-05-19T12:52:29Z</time>
      </trkpt>
      <trkpt lat="47.59047" lon="-3.08498">
        <ele>16.96</ele>
        <time>2022-05-19T12:52:32Z</time>
      </trkpt>
      <trkpt lat="47.59049" lon="-3.085">
        <ele>16.96</ele>
        <time>2022-05-19T12:52:34Z</time>
      </trkpt>
      <trkpt lat="47.59065" lon="-3.08508">
        <ele>16.96</ele>
        <time>2022-05-19T12:52:50Z</time>
      </trkpt>
      <trkpt lat="47.59086" lon="-3.08512">
        <ele>18.4</ele>
        <time>2022-05-19T12:53:07Z</time>
      </trkpt>
      <trkpt lat="47.59103" lon="-3.08517">
        <ele>18.88</ele>
        <time>2022-05-19T12:53:22Z</time>
      </trkpt>
      <trkpt lat="47.59125" lon="-3.08521">
        <ele>19.36</ele>
        <time>2022-05-19T12:53:42Z</time>
      </trkpt>
      <trkpt lat="47.59126" lon="-3.08521">
        <ele>19.36</ele>
        <time>2022-05-19T12:53:43Z</time>
      </trkpt>
      <trkpt lat="47.59132" lon="-3.08529">
        <ele>18.88</ele>
        <time>2022-05-19T12:54:00Z</time>
      </trkpt>
      <trkpt lat="47.59133" lon="-3.08533">
        <ele>19.84</ele>
        <time>2022-05-19T12:54:04Z</time>
      </trkpt>
      <trkpt lat="47.59133" lon="-3.08534">
        <ele>19.36</ele>
        <time>2022-05-19T12:54:13Z</time>
      </trkpt>
      <trkpt lat="47.59133" lon="-3.08525">
        <ele>19.36</ele>
        <time>2022-05-19T12:54:28Z</time>
      </trkpt>
      <trkpt lat="47.59134" lon="-3.08524">
        <ele>18.88</ele>
        <time>2022-05-19T12:54:49Z</time>
      </trkpt>
      <trkpt lat="47.59132" lon="-3.08525">
        <ele>19.36</ele>
        <time>2022-05-19T12:55:09Z</time>
      </trkpt>
      <trkpt lat="47.59131" lon="-3.08529">
        <ele>19.36</ele>
        <time>2022-05-19T12:55:35Z</time>
      </trkpt>
      <trkpt lat="47.59133" lon="-3.08534">
        <ele>18.88</ele>
        <time>2022-05-19T12:55:50Z</time>
      </trkpt>
      <trkpt lat="47.59137" lon="-3.08547">
        <ele>19.36</ele>
        <time>2022-05-19T12:56:04Z</time>
      </trkpt>
      <trkpt lat="47.5914" lon="-3.08554">
        <ele>19.36</ele>
        <time>2022-05-19T12:56:16Z</time>
      </trkpt>
      <trkpt lat="47.59142" lon="-3.08556">
        <ele>19.36</ele>
        <time>2022-05-19T12:56:27Z</time>
      </trkpt>
      <trkpt lat="47.59149" lon="-3.08557">
        <ele>20.32</ele>
        <time>2022-05-19T12:56:34Z</time>
      </trkpt>
      <trkpt lat="47.59155" lon="-3.08561">
        <ele>20.32</ele>
        <time>2022-05-19T12:56:49Z</time>
      </trkpt>
      <trkpt lat="47.5916" lon="-3.08558">
        <ele>19.84</ele>
        <time>2022-05-19T12:57:02Z</time>
      </trkpt>
      <trkpt lat="47.59159" lon="-3.08559">
        <ele>19.84</ele>
        <time>2022-05-19T12:57:22Z</time>
      </trkpt>
      <trkpt lat="47.59162" lon="-3.08554">
        <ele>19.84</ele>
        <time>2022-05-19T12:57:36Z</time>
      </trkpt>
      <trkpt lat="47.59163" lon="-3.08559">
        <ele>19.84</ele>
        <time>2022-05-19T12:57:57Z</time>
      </trkpt>
      <trkpt lat="47.59169" lon="-3.08552">
        <ele>19.84</ele>
        <time>2022-05-19T12:58:10Z</time>
      </trkpt>
      <trkpt lat="47.59176" lon="-3.08553">
        <ele>19.84</ele>
        <time>2022-05-19T12:58:19Z</time>
      </trkpt>
      <trkpt lat="47.59178" lon="-3.08556">
        <ele>20.32</ele>
        <time>2022-05-19T12:58:22Z</time>
      </trkpt>
      <trkpt lat="47.59179" lon="-3.08564">
        <ele>20.32</ele>
        <time>2022-05-19T12:58:29Z</time>
      </trkpt>
      <trkpt lat="47.59177" lon="-3.08575">
        <ele>20.32</ele>
        <time>2022-05-19T12:58:37Z</time>
      </trkpt>
      <trkpt lat="47.59179" lon="-3.086">
        <ele>20.32</ele>
        <time>2022-05-19T12:58:52Z</time>
      </trkpt>
      <trkpt lat="47.59174" lon="-3.08609">
        <ele>19.84</ele>
        <time>2022-05-19T12:59:07Z</time>
      </trkpt>
      <trkpt lat="47.59176" lon="-3.08604">
        <ele>19.84</ele>
        <time>2022-05-19T12:59:24Z</time>
      </trkpt>
      <trkpt lat="47.59181" lon="-3.08597">
        <ele>20.32</ele>
        <time>2022-05-19T12:59:36Z</time>
      </trkpt>
      <trkpt lat="47.59181" lon="-3.08594">
        <ele>18.88</ele>
        <time>2022-05-19T12:59:39Z</time>
      </trkpt>
      <trkpt lat="47.59181" lon="-3.08591">
        <ele>19.84</ele>
        <time>2022-05-19T12:59:41Z</time>
      </trkpt>
      <trkpt lat="47.59175" lon="-3.08573">
        <ele>19.84</ele>
        <time>2022-05-19T12:59:57Z</time>
      </trkpt>
      <trkpt lat="47.59176" lon="-3.08571">
        <ele>19.84</ele>
        <time>2022-05-19T12:59:59Z</time>
      </trkpt>
      <trkpt lat="47.5918" lon="-3.08567">
        <ele>19.84</ele>
        <time>2022-05-19T13:00:03Z</time>
      </trkpt>
      <trkpt lat="47.59186" lon="-3.08561">
        <ele>19.84</ele>
        <time>2022-05-19T13:00:10Z</time>
      </trkpt>
      <trkpt lat="47.59193" lon="-3.08555">
        <ele>19.84</ele>
        <time>2022-05-19T13:00:26Z</time>
      </trkpt>
      <trkpt lat="47.59206" lon="-3.08554">
        <ele>19.36</ele>
        <time>2022-05-19T13:00:41Z</time>
      </trkpt>
      <trkpt lat="47.5921" lon="-3.08552">
        <ele>19.36</ele>
        <time>2022-05-19T13:00:47Z</time>
      </trkpt>
      <trkpt lat="47.59214" lon="-3.08543">
        <ele>19.84</ele>
        <time>2022-05-19T13:00:55Z</time>
      </trkpt>
      <trkpt lat="47.59216" lon="-3.08537">
        <ele>19.84</ele>
        <time>2022-05-19T13:01:08Z</time>
      </trkpt>
      <trkpt lat="47.59216" lon="-3.08537">
        <ele>14.08</ele>
        <time>2022-05-19T13:01:09Z</time>
      </trkpt>
      <trkpt lat="47.59216" lon="-3.08537">
        <ele>18.4</ele>
        <time>2022-05-19T13:01:10Z</time>
      </trkpt>
      <trkpt lat="47.59216" lon="-3.08537">
        <ele>21.77</ele>
        <time>2022-05-19T13:01:12Z</time>
      </trkpt>
      <trkpt lat="47.59219" lon="-3.08536">
        <ele>19.84</ele>
        <time>2022-05-19T13:01:17Z</time>
      </trkpt>
      <trkpt lat="47.59229" lon="-3.08535">
        <ele>18.88</ele>
        <time>2022-05-19T13:01:28Z</time>
      </trkpt>
      <trkpt lat="47.59245" lon="-3.08521">
        <ele>19.36</ele>
        <time>2022-05-19T13:01:44Z</time>
      </trkpt>
      <trkpt lat="47.59249" lon="-3.08509">
        <ele>18.88</ele>
        <time>2022-05-19T13:01:59Z</time>
      </trkpt>
      <trkpt lat="47.59248" lon="-3.08507">
        <ele>19.36</ele>
        <time>2022-05-19T13:02:17Z</time>
      </trkpt>
      <trkpt lat="47.59251" lon="-3.08496">
        <ele>18.88</ele>
        <time>2022-05-19T13:02:24Z</time>
      </trkpt>
      <trkpt lat="47.59255" lon="-3.08478">
        <ele>18.88</ele>
        <time>2022-05-19T13:02:36Z</time>
      </trkpt>
      <trkpt lat="47.59262" lon="-3.08455">
        <ele>18.4</ele>
        <time>2022-05-19T13:02:53Z</time>
      </trkpt>
      <trkpt lat="47.59262" lon="-3.08454">
        <ele>18.4</ele>
        <time>2022-05-19T13:02:54Z</time>
      </trkpt>
      <trkpt lat="47.59267" lon="-3.08449">
        <ele>18.88</ele>
        <time>2022-05-19T13:03:09Z</time>
      </trkpt>
      <trkpt lat="47.59267" lon="-3.08444">
        <ele>19.36</ele>
        <time>2022-05-19T13:03:15Z</time>
      </trkpt>
      <trkpt lat="47.59273" lon="-3.08414">
        <ele>18.88</ele>
        <time>2022-05-19T13:03:36Z</time>
      </trkpt>
      <trkpt lat="47.59281" lon="-3.08379">
        <ele>18.88</ele>
        <time>2022-05-19T13:03:58Z</time>
      </trkpt>
      <trkpt lat="47.59287" lon="-3.08353">
        <ele>17.92</ele>
        <time>2022-05-19T13:04:15Z</time>
      </trkpt>
      <trkpt lat="47.59293" lon="-3.0833">
        <ele>17.92</ele>
        <time>2022-05-19T13:04:31Z</time>
      </trkpt>
      <trkpt lat="47.593" lon="-3.08294">
        <ele>16.96</ele>
        <time>2022-05-19T13:04:52Z</time>
      </trkpt>
      <trkpt lat="47.59307" lon="-3.08268">
        <ele>16.96</ele>
        <time>2022-05-19T13:05:09Z</time>
      </trkpt>
      <trkpt lat="47.59314" lon="-3.08235">
        <ele>16</ele>
        <time>2022-05-19T13:05:29Z</time>
      </trkpt>
      <trkpt lat="47.59315" lon="-3.08239">
        <ele>16.96</ele>
        <time>2022-05-19T13:05:41Z</time>
      </trkpt>
      <trkpt lat="47.59315" lon="-3.0824">
        <ele>16.96</ele>
        <time>2022-05-19T13:05:42Z</time>
      </trkpt>
      <trkpt lat="47.59309" lon="-3.0827">
        <ele>16.48</ele>
        <time>2022-05-19T13:06:02Z</time>
      </trkpt>
      <trkpt lat="47.59303" lon="-3.08298">
        <ele>16.96</ele>
        <time>2022-05-19T13:06:21Z</time>
      </trkpt>
      <trkpt lat="47.59302" lon="-3.08302">
        <ele>16.96</ele>
        <time>2022-05-19T13:06:42Z</time>
      </trkpt>
      <trkpt lat="47.59301" lon="-3.08298">
        <ele>16.48</ele>
        <time>2022-05-19T13:07:12Z</time>
      </trkpt>
      <trkpt lat="47.59301" lon="-3.083">
        <ele>16.48</ele>
        <time>2022-05-19T13:07:40Z</time>
      </trkpt>
      <trkpt lat="47.59301" lon="-3.08294">
        <ele>16</ele>
        <time>2022-05-19T13:08:02Z</time>
      </trkpt>
      <trkpt lat="47.59305" lon="-3.08279">
        <ele>16.48</ele>
        <time>2022-05-19T13:08:18Z</time>
      </trkpt>
      <trkpt lat="47.59305" lon="-3.08275">
        <ele>15.52</ele>
        <time>2022-05-19T13:08:45Z</time>
      </trkpt>
      <trkpt lat="47.59305" lon="-3.08276">
        <ele>15.52</ele>
        <time>2022-05-19T13:09:07Z</time>
      </trkpt>
      <trkpt lat="47.59305" lon="-3.08274">
        <ele>15.52</ele>
        <time>2022-05-19T13:09:18Z</time>
      </trkpt>
      <trkpt lat="47.59312" lon="-3.08251">
        <ele>15.52</ele>
        <time>2022-05-19T13:09:34Z</time>
      </trkpt>
      <trkpt lat="47.59321" lon="-3.08217">
        <ele>16</ele>
        <time>2022-05-19T13:09:55Z</time>
      </trkpt>
      <trkpt lat="47.59326" lon="-3.0819">
        <ele>15.52</ele>
        <time>2022-05-19T13:10:12Z</time>
      </trkpt>
      <trkpt lat="47.59334" lon="-3.08154">
        <ele>14.56</ele>
        <time>2022-05-19T13:10:35Z</time>
      </trkpt>
      <trkpt lat="47.59346" lon="-3.08118">
        <ele>14.56</ele>
        <time>2022-05-19T13:10:58Z</time>
      </trkpt>
      <trkpt lat="47.59351" lon="-3.08113">
        <ele>14.08</ele>
        <time>2022-05-19T13:11:04Z</time>
      </trkpt>
      <trkpt lat="47.59357" lon="-3.08114">
        <ele>15.04</ele>
        <time>2022-05-19T13:11:10Z</time>
      </trkpt>
      <trkpt lat="47.59364" lon="-3.08118">
        <ele>15.04</ele>
        <time>2022-05-19T13:11:17Z</time>
      </trkpt>
      <trkpt lat="47.59372" lon="-3.08123">
        <ele>15.04</ele>
        <time>2022-05-19T13:11:24Z</time>
      </trkpt>
      <trkpt lat="47.59374" lon="-3.08124">
        <ele>15.04</ele>
        <time>2022-05-19T13:11:26Z</time>
      </trkpt>
      <trkpt lat="47.59385" lon="-3.08113">
        <ele>14.56</ele>
        <time>2022-05-19T13:11:41Z</time>
      </trkpt>
      <trkpt lat="47.59386" lon="-3.08113">
        <ele>14.56</ele>
        <time>2022-05-19T13:11:42Z</time>
      </trkpt>
      <trkpt lat="47.5939" lon="-3.08112">
        <ele>14.56</ele>
        <time>2022-05-19T13:11:48Z</time>
      </trkpt>
      <trkpt lat="47.594" lon="-3.08114">
        <ele>14.56</ele>
        <time>2022-05-19T13:12:02Z</time>
      </trkpt>
      <trkpt lat="47.59402" lon="-3.08113">
        <ele>14.56</ele>
        <time>2022-05-19T13:12:05Z</time>
      </trkpt>
      <trkpt lat="47.59409" lon="-3.08091">
        <ele>15.04</ele>
        <time>2022-05-19T13:12:20Z</time>
      </trkpt>
      <trkpt lat="47.59413" lon="-3.08068">
        <ele>14.56</ele>
        <time>2022-05-19T13:12:35Z</time>
      </trkpt>
      <trkpt lat="47.59414" lon="-3.08043">
        <ele>15.04</ele>
        <time>2022-05-19T13:12:51Z</time>
      </trkpt>
      <trkpt lat="47.59414" lon="-3.0804">
        <ele>14.08</ele>
        <time>2022-05-19T13:12:53Z</time>
      </trkpt>
      <trkpt lat="47.59415" lon="-3.08022">
        <ele>14.56</ele>
        <time>2022-05-19T13:13:03Z</time>
      </trkpt>
      <trkpt lat="47.59417" lon="-3.07999">
        <ele>15.52</ele>
        <time>2022-05-19T13:13:17Z</time>
      </trkpt>
      <trkpt lat="47.59419" lon="-3.07977">
        <ele>14.56</ele>
        <time>2022-05-19T13:13:30Z</time>
      </trkpt>
      <trkpt lat="47.5942" lon="-3.07968">
        <ele>15.04</ele>
        <time>2022-05-19T13:13:35Z</time>
      </trkpt>
      <trkpt lat="47.5942" lon="-3.07952">
        <ele>15.52</ele>
        <time>2022-05-19T13:13:45Z</time>
      </trkpt>
      <trkpt lat="47.59423" lon="-3.0793">
        <ele>15.52</ele>
        <time>2022-05-19T13:13:59Z</time>
      </trkpt>
      <trkpt lat="47.59429" lon="-3.079">
        <ele>15.52</ele>
        <time>2022-05-19T13:14:14Z</time>
      </trkpt>
      <trkpt lat="47.59433" lon="-3.07875">
        <ele>15.52</ele>
        <time>2022-05-19T13:14:27Z</time>
      </trkpt>
      <trkpt lat="47.59436" lon="-3.07854">
        <ele>15.04</ele>
        <time>2022-05-19T13:14:41Z</time>
      </trkpt>
      <trkpt lat="47.5944" lon="-3.07831">
        <ele>15.52</ele>
        <time>2022-05-19T13:14:55Z</time>
      </trkpt>
      <trkpt lat="47.59437" lon="-3.07815">
        <ele>15.52</ele>
        <time>2022-05-19T13:15:05Z</time>
      </trkpt>
      <trkpt lat="47.59437" lon="-3.07794">
        <ele>14.56</ele>
        <time>2022-05-19T13:15:15Z</time>
      </trkpt>
      <trkpt lat="47.59441" lon="-3.07767">
        <ele>15.52</ele>
        <time>2022-05-19T13:15:32Z</time>
      </trkpt>
      <trkpt lat="47.59448" lon="-3.07738">
        <ele>14.56</ele>
        <time>2022-05-19T13:15:52Z</time>
      </trkpt>
      <trkpt lat="47.59455" lon="-3.07708">
        <ele>14.56</ele>
        <time>2022-05-19T13:16:11Z</time>
      </trkpt>
      <trkpt lat="47.59466" lon="-3.07674">
        <ele>15.04</ele>
        <time>2022-05-19T13:16:32Z</time>
      </trkpt>
      <trkpt lat="47.59478" lon="-3.07648">
        <ele>15.04</ele>
        <time>2022-05-19T13:16:51Z</time>
      </trkpt>
      <trkpt lat="47.59489" lon="-3.0763">
        <ele>13.12</ele>
        <time>2022-05-19T13:17:06Z</time>
      </trkpt>
      <trkpt lat="47.59494" lon="-3.07623">
        <ele>14.56</ele>
        <time>2022-05-19T13:17:19Z</time>
      </trkpt>
      <trkpt lat="47.59492" lon="-3.07622">
        <ele>14.56</ele>
        <time>2022-05-19T13:17:47Z</time>
      </trkpt>
      <trkpt lat="47.59491" lon="-3.07612">
        <ele>13.6</ele>
        <time>2022-05-19T13:17:58Z</time>
      </trkpt>
      <trkpt lat="47.59476" lon="-3.07583">
        <ele>13.6</ele>
        <time>2022-05-19T13:18:18Z</time>
      </trkpt>
      <trkpt lat="47.59454" lon="-3.07559">
        <ele>12.15</ele>
        <time>2022-05-19T13:18:42Z</time>
      </trkpt>
      <trkpt lat="47.59433" lon="-3.07534">
        <ele>11.67</ele>
        <time>2022-05-19T13:19:03Z</time>
      </trkpt>
      <trkpt lat="47.59429" lon="-3.07525">
        <ele>12.15</ele>
        <time>2022-05-19T13:19:18Z</time>
      </trkpt>
      <trkpt lat="47.59429" lon="-3.07526">
        <ele>12.15</ele>
        <time>2022-05-19T13:19:37Z</time>
      </trkpt>
      <trkpt lat="47.59429" lon="-3.07527">
        <ele>12.63</ele>
        <time>2022-05-19T13:19:42Z</time>
      </trkpt>
      <trkpt lat="47.59425" lon="-3.07507">
        <ele>12.63</ele>
        <time>2022-05-19T13:19:54Z</time>
      </trkpt>
      <trkpt lat="47.59436" lon="-3.07491">
        <ele>12.15</ele>
        <time>2022-05-19T13:20:09Z</time>
      </trkpt>
      <trkpt lat="47.59439" lon="-3.07481">
        <ele>12.63</ele>
        <time>2022-05-19T13:20:15Z</time>
      </trkpt>
      <trkpt lat="47.5945" lon="-3.07449">
        <ele>12.63</ele>
        <time>2022-05-19T13:20:35Z</time>
      </trkpt>
      <trkpt lat="47.59462" lon="-3.07421">
        <ele>11.19</ele>
        <time>2022-05-19T13:20:53Z</time>
      </trkpt>
      <trkpt lat="47.59466" lon="-3.0741">
        <ele>13.12</ele>
        <time>2022-05-19T13:21:01Z</time>
      </trkpt>
      <trkpt lat="47.59477" lon="-3.07383">
        <ele>13.12</ele>
        <time>2022-05-19T13:21:18Z</time>
      </trkpt>
      <trkpt lat="47.59488" lon="-3.07353">
        <ele>13.6</ele>
        <time>2022-05-19T13:21:37Z</time>
      </trkpt>
      <trkpt lat="47.5949" lon="-3.0735">
        <ele>13.12</ele>
        <time>2022-05-19T13:21:40Z</time>
      </trkpt>
      <trkpt lat="47.59493" lon="-3.0735">
        <ele>13.12</ele>
        <time>2022-05-19T13:21:43Z</time>
      </trkpt>
      <trkpt lat="47.59502" lon="-3.07355">
        <ele>13.6</ele>
        <time>2022-05-19T13:21:52Z</time>
      </trkpt>
      <trkpt lat="47.59505" lon="-3.0735">
        <ele>13.12</ele>
        <time>2022-05-19T13:21:56Z</time>
      </trkpt>
      <trkpt lat="47.59517" lon="-3.07321">
        <ele>12.63</ele>
        <time>2022-05-19T13:22:15Z</time>
      </trkpt>
      <trkpt lat="47.59528" lon="-3.0729">
        <ele>13.12</ele>
        <time>2022-05-19T13:22:35Z</time>
      </trkpt>
      <trkpt lat="47.59533" lon="-3.07289">
        <ele>12.63</ele>
        <time>2022-05-19T13:22:51Z</time>
      </trkpt>
      <trkpt lat="47.59537" lon="-3.0729">
        <ele>12.63</ele>
        <time>2022-05-19T13:23:17Z</time>
      </trkpt>
      <trkpt lat="47.59537" lon="-3.07289">
        <ele>12.15</ele>
        <time>2022-05-19T13:24:01Z</time>
      </trkpt>
      <trkpt lat="47.59537" lon="-3.07283">
        <ele>13.12</ele>
        <time>2022-05-19T13:24:07Z</time>
      </trkpt>
      <trkpt lat="47.59542" lon="-3.07273">
        <ele>12.15</ele>
        <time>2022-05-19T13:24:17Z</time>
      </trkpt>
      <trkpt lat="47.59553" lon="-3.07253">
        <ele>12.63</ele>
        <time>2022-05-19T13:24:32Z</time>
      </trkpt>
      <trkpt lat="47.59563" lon="-3.07239">
        <ele>11.19</ele>
        <time>2022-05-19T13:24:43Z</time>
      </trkpt>
      <trkpt lat="47.5958" lon="-3.07216">
        <ele>12.15</ele>
        <time>2022-05-19T13:25:02Z</time>
      </trkpt>
      <trkpt lat="47.59588" lon="-3.07198">
        <ele>12.15</ele>
        <time>2022-05-19T13:25:16Z</time>
      </trkpt>
      <trkpt lat="47.59591" lon="-3.07186">
        <ele>12.63</ele>
        <time>2022-05-19T13:25:24Z</time>
      </trkpt>
      <trkpt lat="47.5959" lon="-3.07176">
        <ele>12.15</ele>
        <time>2022-05-19T13:25:29Z</time>
      </trkpt>
      <trkpt lat="47.59592" lon="-3.07158">
        <ele>11.67</ele>
        <time>2022-05-19T13:25:41Z</time>
      </trkpt>
      <trkpt lat="47.59594" lon="-3.07127">
        <ele>11.67</ele>
        <time>2022-05-19T13:25:57Z</time>
      </trkpt>
      <trkpt lat="47.59594" lon="-3.07124">
        <ele>11.67</ele>
        <time>2022-05-19T13:25:59Z</time>
      </trkpt>
      <trkpt lat="47.596" lon="-3.07103">
        <ele>11.67</ele>
        <time>2022-05-19T13:26:13Z</time>
      </trkpt>
      <trkpt lat="47.59601" lon="-3.07082">
        <ele>12.15</ele>
        <time>2022-05-19T13:26:25Z</time>
      </trkpt>
      <trkpt lat="47.59603" lon="-3.07077">
        <ele>11.19</ele>
        <time>2022-05-19T13:26:29Z</time>
      </trkpt>
      <trkpt lat="47.59605" lon="-3.07053">
        <ele>12.63</ele>
        <time>2022-05-19T13:26:44Z</time>
      </trkpt>
      <trkpt lat="47.59609" lon="-3.07037">
        <ele>12.15</ele>
        <time>2022-05-19T13:26:56Z</time>
      </trkpt>
      <trkpt lat="47.59614" lon="-3.07004">
        <ele>13.6</ele>
        <time>2022-05-19T13:27:13Z</time>
      </trkpt>
      <trkpt lat="47.59621" lon="-3.06973">
        <ele>14.56</ele>
        <time>2022-05-19T13:27:30Z</time>
      </trkpt>
      <trkpt lat="47.59622" lon="-3.06971">
        <ele>14.08</ele>
        <time>2022-05-19T13:27:31Z</time>
      </trkpt>
      <trkpt lat="47.59626" lon="-3.06958">
        <ele>13.6</ele>
        <time>2022-05-19T13:27:39Z</time>
      </trkpt>
      <trkpt lat="47.59631" lon="-3.06932">
        <ele>14.08</ele>
        <time>2022-05-19T13:27:55Z</time>
      </trkpt>
      <trkpt lat="47.59639" lon="-3.06904">
        <ele>14.56</ele>
        <time>2022-05-19T13:28:12Z</time>
      </trkpt>
      <trkpt lat="47.59645" lon="-3.0688">
        <ele>15.52</ele>
        <time>2022-05-19T13:28:26Z</time>
      </trkpt>
      <trkpt lat="47.59651" lon="-3.0685">
        <ele>16</ele>
        <time>2022-05-19T13:28:43Z</time>
      </trkpt>
      <trkpt lat="47.59651" lon="-3.06821">
        <ele>16</ele>
        <time>2022-05-19T13:29:00Z</time>
      </trkpt>
      <trkpt lat="47.5965" lon="-3.06799">
        <ele>16.48</ele>
        <time>2022-05-19T13:29:12Z</time>
      </trkpt>
      <trkpt lat="47.59653" lon="-3.06769">
        <ele>16.48</ele>
        <time>2022-05-19T13:29:31Z</time>
      </trkpt>
      <trkpt lat="47.59657" lon="-3.06745">
        <ele>16.96</ele>
        <time>2022-05-19T13:29:45Z</time>
      </trkpt>
      <trkpt lat="47.59664" lon="-3.06712">
        <ele>15.52</ele>
        <time>2022-05-19T13:30:07Z</time>
      </trkpt>
      <trkpt lat="47.59675" lon="-3.06687">
        <ele>16</ele>
        <time>2022-05-19T13:30:24Z</time>
      </trkpt>
      <trkpt lat="47.59682" lon="-3.06658">
        <ele>15.52</ele>
        <time>2022-05-19T13:30:42Z</time>
      </trkpt>
      <trkpt lat="47.59691" lon="-3.0663">
        <ele>15.52</ele>
        <time>2022-05-19T13:30:59Z</time>
      </trkpt>
      <trkpt lat="47.59693" lon="-3.06624">
        <ele>14.56</ele>
        <time>2022-05-19T13:31:11Z</time>
      </trkpt>
      <trkpt lat="47.59693" lon="-3.0663">
        <ele>15.04</ele>
        <time>2022-05-19T13:31:25Z</time>
      </trkpt>
      <trkpt lat="47.59692" lon="-3.06629">
        <ele>15.04</ele>
        <time>2022-05-19T13:32:02Z</time>
      </trkpt>
      <trkpt lat="47.59691" lon="-3.06632">
        <ele>15.04</ele>
        <time>2022-05-19T13:32:32Z</time>
      </trkpt>
      <trkpt lat="47.59693" lon="-3.06633">
        <ele>14.56</ele>
        <time>2022-05-19T13:32:54Z</time>
      </trkpt>
      <trkpt lat="47.59691" lon="-3.06633">
        <ele>15.04</ele>
        <time>2022-05-19T13:33:21Z</time>
      </trkpt>
      <trkpt lat="47.59692" lon="-3.06635">
        <ele>15.04</ele>
        <time>2022-05-19T13:33:37Z</time>
      </trkpt>
      <trkpt lat="47.59691" lon="-3.06633">
        <ele>14.56</ele>
        <time>2022-05-19T13:33:59Z</time>
      </trkpt>
      <trkpt lat="47.59688" lon="-3.06635">
        <ele>14.56</ele>
        <time>2022-05-19T13:34:37Z</time>
      </trkpt>
      <trkpt lat="47.59688" lon="-3.06633">
        <ele>14.56</ele>
        <time>2022-05-19T13:35:08Z</time>
      </trkpt>
      <trkpt lat="47.59691" lon="-3.06633">
        <ele>15.04</ele>
        <time>2022-05-19T13:35:35Z</time>
      </trkpt>
      <trkpt lat="47.5969" lon="-3.06633">
        <ele>14.08</ele>
        <time>2022-05-19T13:35:59Z</time>
      </trkpt>
      <trkpt lat="47.59692" lon="-3.06623">
        <ele>14.08</ele>
        <time>2022-05-19T13:36:12Z</time>
      </trkpt>
      <trkpt lat="47.59697" lon="-3.06609">
        <ele>14.08</ele>
        <time>2022-05-19T13:36:24Z</time>
      </trkpt>
      <trkpt lat="47.59707" lon="-3.06584">
        <ele>13.12</ele>
        <time>2022-05-19T13:36:42Z</time>
      </trkpt>
      <trkpt lat="47.59716" lon="-3.06556">
        <ele>12.15</ele>
        <time>2022-05-19T13:37:00Z</time>
      </trkpt>
      <trkpt lat="47.59727" lon="-3.06538">
        <ele>11.19</ele>
        <time>2022-05-19T13:37:15Z</time>
      </trkpt>
      <trkpt lat="47.59739" lon="-3.06512">
        <ele>12.15</ele>
        <time>2022-05-19T13:37:33Z</time>
      </trkpt>
      <trkpt lat="47.5975" lon="-3.06487">
        <ele>10.71</ele>
        <time>2022-05-19T13:37:49Z</time>
      </trkpt>
      <trkpt lat="47.59755" lon="-3.06477">
        <ele>11.67</ele>
        <time>2022-05-19T13:37:57Z</time>
      </trkpt>
      <trkpt lat="47.5975" lon="-3.06449">
        <ele>11.19</ele>
        <time>2022-05-19T13:38:15Z</time>
      </trkpt>
      <trkpt lat="47.59749" lon="-3.06448">
        <ele>12.15</ele>
        <time>2022-05-19T13:38:16Z</time>
      </trkpt>
      <trkpt lat="47.59734" lon="-3.06442">
        <ele>12.63</ele>
        <time>2022-05-19T13:38:30Z</time>
      </trkpt>
      <trkpt lat="47.59714" lon="-3.06447">
        <ele>12.15</ele>
        <time>2022-05-19T13:38:50Z</time>
      </trkpt>
      <trkpt lat="47.59713" lon="-3.06449">
        <ele>12.15</ele>
        <time>2022-05-19T13:38:51Z</time>
      </trkpt>
      <trkpt lat="47.59696" lon="-3.06463">
        <ele>13.12</ele>
        <time>2022-05-19T13:39:08Z</time>
      </trkpt>
      <trkpt lat="47.59672" lon="-3.06468">
        <ele>13.12</ele>
        <time>2022-05-19T13:39:28Z</time>
      </trkpt>
      <trkpt lat="47.59664" lon="-3.06463">
        <ele>13.6</ele>
        <time>2022-05-19T13:39:41Z</time>
      </trkpt>
      <trkpt lat="47.59666" lon="-3.06448">
        <ele>13.6</ele>
        <time>2022-05-19T13:39:55Z</time>
      </trkpt>
      <trkpt lat="47.59668" lon="-3.06443">
        <ele>13.12</ele>
        <time>2022-05-19T13:39:59Z</time>
      </trkpt>
      <trkpt lat="47.59677" lon="-3.06411">
        <ele>13.6</ele>
        <time>2022-05-19T13:40:21Z</time>
      </trkpt>
      <trkpt lat="47.59684" lon="-3.0639">
        <ele>13.12</ele>
        <time>2022-05-19T13:40:40Z</time>
      </trkpt>
      <trkpt lat="47.59688" lon="-3.06379">
        <ele>12.63</ele>
        <time>2022-05-19T13:40:56Z</time>
      </trkpt>
      <trkpt lat="47.59699" lon="-3.06346">
        <ele>14.08</ele>
        <time>2022-05-19T13:41:16Z</time>
      </trkpt>
      <trkpt lat="47.59708" lon="-3.06322">
        <ele>14.08</ele>
        <time>2022-05-19T13:41:33Z</time>
      </trkpt>
      <trkpt lat="47.59714" lon="-3.06312">
        <ele>14.56</ele>
        <time>2022-05-19T13:41:40Z</time>
      </trkpt>
      <trkpt lat="47.59728" lon="-3.0628">
        <ele>14.56</ele>
        <time>2022-05-19T13:42:02Z</time>
      </trkpt>
      <trkpt lat="47.59742" lon="-3.06256">
        <ele>15.52</ele>
        <time>2022-05-19T13:42:20Z</time>
      </trkpt>
      <trkpt lat="47.59747" lon="-3.06246">
        <ele>16</ele>
        <time>2022-05-19T13:42:34Z</time>
      </trkpt>
      <trkpt lat="47.59749" lon="-3.06238">
        <ele>15.52</ele>
        <time>2022-05-19T13:42:39Z</time>
      </trkpt>
      <trkpt lat="47.59753" lon="-3.06231">
        <ele>16</ele>
        <time>2022-05-19T13:42:44Z</time>
      </trkpt>
      <trkpt lat="47.59755" lon="-3.06228">
        <ele>16.48</ele>
        <time>2022-05-19T13:42:46Z</time>
      </trkpt>
      <trkpt lat="47.59767" lon="-3.06212">
        <ele>16.48</ele>
        <time>2022-05-19T13:42:59Z</time>
      </trkpt>
      <trkpt lat="47.59783" lon="-3.06185">
        <ele>16.48</ele>
        <time>2022-05-19T13:43:18Z</time>
      </trkpt>
      <trkpt lat="47.59786" lon="-3.06183">
        <ele>16.96</ele>
        <time>2022-05-19T13:43:22Z</time>
      </trkpt>
      <trkpt lat="47.59791" lon="-3.06178">
        <ele>16.48</ele>
        <time>2022-05-19T13:43:28Z</time>
      </trkpt>
      <trkpt lat="47.59811" lon="-3.06167">
        <ele>17.44</ele>
        <time>2022-05-19T13:43:48Z</time>
      </trkpt>
      <trkpt lat="47.59814" lon="-3.06164">
        <ele>17.44</ele>
        <time>2022-05-19T13:43:51Z</time>
      </trkpt>
      <trkpt lat="47.59834" lon="-3.06165">
        <ele>18.88</ele>
        <time>2022-05-19T13:44:08Z</time>
      </trkpt>
      <trkpt lat="47.59847" lon="-3.06164">
        <ele>19.36</ele>
        <time>2022-05-19T13:44:21Z</time>
      </trkpt>
      <trkpt lat="47.59857" lon="-3.06158">
        <ele>19.36</ele>
        <time>2022-05-19T13:44:32Z</time>
      </trkpt>
      <trkpt lat="47.59861" lon="-3.0616">
        <ele>19.84</ele>
        <time>2022-05-19T13:44:47Z</time>
      </trkpt>
      <trkpt lat="47.5986" lon="-3.06159">
        <ele>19.36</ele>
        <time>2022-05-19T13:45:01Z</time>
      </trkpt>
      <trkpt lat="47.59859" lon="-3.06161">
        <ele>20.32</ele>
        <time>2022-05-19T13:45:12Z</time>
      </trkpt>
      <trkpt lat="47.59857" lon="-3.0616">
        <ele>19.36</ele>
        <time>2022-05-19T13:45:16Z</time>
      </trkpt>
      <trkpt lat="47.59852" lon="-3.06162">
        <ele>20.32</ele>
        <time>2022-05-19T13:45:22Z</time>
      </trkpt>
      <trkpt lat="47.59846" lon="-3.06167">
        <ele>19.84</ele>
        <time>2022-05-19T13:45:42Z</time>
      </trkpt>
      <trkpt lat="47.59845" lon="-3.06171">
        <ele>18.88</ele>
        <time>2022-05-19T13:46:04Z</time>
      </trkpt>
      <trkpt lat="47.59846" lon="-3.06172">
        <ele>18.88</ele>
        <time>2022-05-19T13:46:27Z</time>
      </trkpt>
      <trkpt lat="47.59845" lon="-3.06171">
        <ele>18.88</ele>
        <time>2022-05-19T13:46:51Z</time>
      </trkpt>
      <trkpt lat="47.59843" lon="-3.06169">
        <ele>19.84</ele>
        <time>2022-05-19T13:47:22Z</time>
      </trkpt>
      <trkpt lat="47.59845" lon="-3.06172">
        <ele>19.36</ele>
        <time>2022-05-19T13:47:46Z</time>
      </trkpt>
      <trkpt lat="47.5984" lon="-3.06169">
        <ele>19.36</ele>
        <time>2022-05-19T13:47:59Z</time>
      </trkpt>
      <trkpt lat="47.59833" lon="-3.06168">
        <ele>18.4</ele>
        <time>2022-05-19T13:48:13Z</time>
      </trkpt>
      <trkpt lat="47.59831" lon="-3.06168">
        <ele>18.4</ele>
        <time>2022-05-19T13:48:15Z</time>
      </trkpt>
      <trkpt lat="47.59823" lon="-3.06164">
        <ele>17.92</ele>
        <time>2022-05-19T13:48:25Z</time>
      </trkpt>
      <trkpt lat="47.5983" lon="-3.06142">
        <ele>17.92</ele>
        <time>2022-05-19T13:48:40Z</time>
      </trkpt>
      <trkpt lat="47.59841" lon="-3.06119">
        <ele>16.96</ele>
        <time>2022-05-19T13:48:56Z</time>
      </trkpt>
      <trkpt lat="47.59845" lon="-3.06112">
        <ele>16.48</ele>
        <time>2022-05-19T13:49:01Z</time>
      </trkpt>
      <trkpt lat="47.59854" lon="-3.06089">
        <ele>16.48</ele>
        <time>2022-05-19T13:49:18Z</time>
      </trkpt>
      <trkpt lat="47.59863" lon="-3.06065">
        <ele>16.48</ele>
        <time>2022-05-19T13:49:33Z</time>
      </trkpt>
      <trkpt lat="47.59876" lon="-3.06035">
        <ele>14.08</ele>
        <time>2022-05-19T13:49:52Z</time>
      </trkpt>
      <trkpt lat="47.59878" lon="-3.0603">
        <ele>13.6</ele>
        <time>2022-05-19T13:49:55Z</time>
      </trkpt>
      <trkpt lat="47.5989" lon="-3.06007">
        <ele>13.6</ele>
        <time>2022-05-19T13:50:11Z</time>
      </trkpt>
      <trkpt lat="47.59891" lon="-3.06003">
        <ele>13.12</ele>
        <time>2022-05-19T13:50:13Z</time>
      </trkpt>
      <trkpt lat="47.59896" lon="-3.05973">
        <ele>12.63</ele>
        <time>2022-05-19T13:50:29Z</time>
      </trkpt>
      <trkpt lat="47.59895" lon="-3.05946">
        <ele>13.12</ele>
        <time>2022-05-19T13:50:44Z</time>
      </trkpt>
      <trkpt lat="47.59894" lon="-3.05928">
        <ele>13.6</ele>
        <time>2022-05-19T13:50:56Z</time>
      </trkpt>
      <trkpt lat="47.59896" lon="-3.05925">
        <ele>13.6</ele>
        <time>2022-05-19T13:51:01Z</time>
      </trkpt>
      <trkpt lat="47.59898" lon="-3.05901">
        <ele>12.63</ele>
        <time>2022-05-19T13:51:14Z</time>
      </trkpt>
      <trkpt lat="47.59901" lon="-3.05889">
        <ele>13.12</ele>
        <time>2022-05-19T13:51:21Z</time>
      </trkpt>
      <trkpt lat="47.59906" lon="-3.05883">
        <ele>12.63</ele>
        <time>2022-05-19T13:51:26Z</time>
      </trkpt>
      <trkpt lat="47.59908" lon="-3.05881">
        <ele>12.15</ele>
        <time>2022-05-19T13:51:28Z</time>
      </trkpt>
      <trkpt lat="47.59912" lon="-3.05874">
        <ele>12.15</ele>
        <time>2022-05-19T13:51:34Z</time>
      </trkpt>
      <trkpt lat="47.59921" lon="-3.05857">
        <ele>12.15</ele>
        <time>2022-05-19T13:51:48Z</time>
      </trkpt>
      <trkpt lat="47.59921" lon="-3.05849">
        <ele>12.15</ele>
        <time>2022-05-19T13:52:01Z</time>
      </trkpt>
      <trkpt lat="47.59916" lon="-3.05859">
        <ele>12.15</ele>
        <time>2022-05-19T13:52:26Z</time>
      </trkpt>
      <trkpt lat="47.59908" lon="-3.05872">
        <ele>12.63</ele>
        <time>2022-05-19T13:52:39Z</time>
      </trkpt>
      <trkpt lat="47.59899" lon="-3.05903">
        <ele>12.63</ele>
        <time>2022-05-19T13:52:57Z</time>
      </trkpt>
      <trkpt lat="47.59896" lon="-3.05923">
        <ele>12.63</ele>
        <time>2022-05-19T13:53:11Z</time>
      </trkpt>
      <trkpt lat="47.59895" lon="-3.05944">
        <ele>13.6</ele>
        <time>2022-05-19T13:53:25Z</time>
      </trkpt>
      <trkpt lat="47.59895" lon="-3.05942">
        <ele>13.12</ele>
        <time>2022-05-19T13:53:40Z</time>
      </trkpt>
      <trkpt lat="47.59897" lon="-3.05925">
        <ele>11.67</ele>
        <time>2022-05-19T13:53:54Z</time>
      </trkpt>
      <trkpt lat="47.599" lon="-3.05905">
        <ele>12.63</ele>
        <time>2022-05-19T13:54:07Z</time>
      </trkpt>
      <trkpt lat="47.59906" lon="-3.05884">
        <ele>13.12</ele>
        <time>2022-05-19T13:54:20Z</time>
      </trkpt>
      <trkpt lat="47.5991" lon="-3.05877">
        <ele>13.12</ele>
        <time>2022-05-19T13:54:26Z</time>
      </trkpt>
      <trkpt lat="47.59917" lon="-3.0586">
        <ele>11.19</ele>
        <time>2022-05-19T13:54:37Z</time>
      </trkpt>
      <trkpt lat="47.59922" lon="-3.05851">
        <ele>12.15</ele>
        <time>2022-05-19T13:54:43Z</time>
      </trkpt>
      <trkpt lat="47.59928" lon="-3.05837">
        <ele>11.67</ele>
        <time>2022-05-19T13:54:53Z</time>
      </trkpt>
      <trkpt lat="47.59932" lon="-3.05827">
        <ele>10.23</ele>
        <time>2022-05-19T13:54:59Z</time>
      </trkpt>
      <trkpt lat="47.59936" lon="-3.05818">
        <ele>10.71</ele>
        <time>2022-05-19T13:55:05Z</time>
      </trkpt>
      <trkpt lat="47.59943" lon="-3.05811">
        <ele>10.23</ele>
        <time>2022-05-19T13:55:13Z</time>
      </trkpt>
      <trkpt lat="47.59948" lon="-3.05802">
        <ele>10.23</ele>
        <time>2022-05-19T13:55:21Z</time>
      </trkpt>
      <trkpt lat="47.59957" lon="-3.05786">
        <ele>8.79</ele>
        <time>2022-05-19T13:55:34Z</time>
      </trkpt>
      <trkpt lat="47.59956" lon="-3.05782">
        <ele>8.31</ele>
        <time>2022-05-19T13:55:50Z</time>
      </trkpt>
      <trkpt lat="47.59956" lon="-3.05781">
        <ele>8.31</ele>
        <time>2022-05-19T13:56:09Z</time>
      </trkpt>
      <trkpt lat="47.59957" lon="-3.05781">
        <ele>7.83</ele>
        <time>2022-05-19T13:56:30Z</time>
      </trkpt>
      <trkpt lat="47.59956" lon="-3.05781">
        <ele>8.31</ele>
        <time>2022-05-19T13:56:46Z</time>
      </trkpt>
      <trkpt lat="47.5996" lon="-3.05779">
        <ele>8.31</ele>
        <time>2022-05-19T13:57:07Z</time>
      </trkpt>
      <trkpt lat="47.59963" lon="-3.05779">
        <ele>7.83</ele>
        <time>2022-05-19T13:57:28Z</time>
      </trkpt>
      <trkpt lat="47.59962" lon="-3.05773">
        <ele>7.35</ele>
        <time>2022-05-19T13:57:43Z</time>
      </trkpt>
      <trkpt lat="47.59967" lon="-3.0577">
        <ele>6.87</ele>
        <time>2022-05-19T13:57:50Z</time>
      </trkpt>
      <trkpt lat="47.59983" lon="-3.05755">
        <ele>5.91</ele>
        <time>2022-05-19T13:58:08Z</time>
      </trkpt>
      <trkpt lat="47.59997" lon="-3.05741">
        <ele>6.39</ele>
        <time>2022-05-19T13:58:27Z</time>
      </trkpt>
      <trkpt lat="47.60001" lon="-3.05737">
        <ele>6.39</ele>
        <time>2022-05-19T13:58:44Z</time>
      </trkpt>
      <trkpt lat="47.60002" lon="-3.05738">
        <ele>6.87</ele>
        <time>2022-05-19T13:59:02Z</time>
      </trkpt>
      <trkpt lat="47.60005" lon="-3.05732">
        <ele>6.87</ele>
        <time>2022-05-19T13:59:28Z</time>
      </trkpt>
      <trkpt lat="47.6001" lon="-3.05717">
        <ele>7.35</ele>
        <time>2022-05-19T13:59:43Z</time>
      </trkpt>
      <trkpt lat="47.60013" lon="-3.05707">
        <ele>9.27</ele>
        <time>2022-05-19T13:59:55Z</time>
      </trkpt>
      <trkpt lat="47.60018" lon="-3.05696">
        <ele>9.27</ele>
        <time>2022-05-19T14:00:10Z</time>
      </trkpt>
      <trkpt lat="47.60021" lon="-3.05692">
        <ele>10.23</ele>
        <time>2022-05-19T14:00:16Z</time>
      </trkpt>
      <trkpt lat="47.60027" lon="-3.05681">
        <ele>10.71</ele>
        <time>2022-05-19T14:00:29Z</time>
      </trkpt>
      <trkpt lat="47.60039" lon="-3.05671">
        <ele>11.67</ele>
        <time>2022-05-19T14:00:42Z</time>
      </trkpt>
      <trkpt lat="47.60054" lon="-3.05655">
        <ele>12.63</ele>
        <time>2022-05-19T14:00:59Z</time>
      </trkpt>
      <trkpt lat="47.60064" lon="-3.05634">
        <ele>13.12</ele>
        <time>2022-05-19T14:01:15Z</time>
      </trkpt>
      <trkpt lat="47.60071" lon="-3.0562">
        <ele>13.12</ele>
        <time>2022-05-19T14:01:29Z</time>
      </trkpt>
      <trkpt lat="47.60074" lon="-3.05618">
        <ele>13.12</ele>
        <time>2022-05-19T14:01:43Z</time>
      </trkpt>
      <trkpt lat="47.60076" lon="-3.05619">
        <ele>13.6</ele>
        <time>2022-05-19T14:02:03Z</time>
      </trkpt>
      <trkpt lat="47.60074" lon="-3.05617">
        <ele>13.6</ele>
        <time>2022-05-19T14:02:27Z</time>
      </trkpt>
      <trkpt lat="47.60074" lon="-3.05617">
        <ele>14.08</ele>
        <time>2022-05-19T14:02:51Z</time>
      </trkpt>
      <trkpt lat="47.60071" lon="-3.05614">
        <ele>14.08</ele>
        <time>2022-05-19T14:03:14Z</time>
      </trkpt>
      <trkpt lat="47.60074" lon="-3.05618">
        <ele>14.08</ele>
        <time>2022-05-19T14:03:34Z</time>
      </trkpt>
      <trkpt lat="47.60077" lon="-3.05611">
        <ele>14.08</ele>
        <time>2022-05-19T14:03:49Z</time>
      </trkpt>
      <trkpt lat="47.6008" lon="-3.05599">
        <ele>14.08</ele>
        <time>2022-05-19T14:04:01Z</time>
      </trkpt>
      <trkpt lat="47.60088" lon="-3.05578">
        <ele>14.08</ele>
        <time>2022-05-19T14:04:17Z</time>
      </trkpt>
      <trkpt lat="47.60093" lon="-3.05555">
        <ele>15.04</ele>
        <time>2022-05-19T14:04:34Z</time>
      </trkpt>
      <trkpt lat="47.60097" lon="-3.05531">
        <ele>14.08</ele>
        <time>2022-05-19T14:04:51Z</time>
      </trkpt>
      <trkpt lat="47.60101" lon="-3.05506">
        <ele>14.08</ele>
        <time>2022-05-19T14:05:07Z</time>
      </trkpt>
      <trkpt lat="47.60103" lon="-3.05489">
        <ele>14.56</ele>
        <time>2022-05-19T14:05:18Z</time>
      </trkpt>
      <trkpt lat="47.60101" lon="-3.05484">
        <ele>14.08</ele>
        <time>2022-05-19T14:05:22Z</time>
      </trkpt>
      <trkpt lat="47.60101" lon="-3.05463">
        <ele>14.56</ele>
        <time>2022-05-19T14:05:34Z</time>
      </trkpt>
      <trkpt lat="47.60095" lon="-3.05451">
        <ele>13.12</ele>
        <time>2022-05-19T14:05:48Z</time>
      </trkpt>
      <trkpt lat="47.60084" lon="-3.05447">
        <ele>13.12</ele>
        <time>2022-05-19T14:06:03Z</time>
      </trkpt>
      <trkpt lat="47.60072" lon="-3.05444">
        <ele>12.63</ele>
        <time>2022-05-19T14:06:14Z</time>
      </trkpt>
      <trkpt lat="47.60051" lon="-3.05434">
        <ele>11.67</ele>
        <time>2022-05-19T14:06:32Z</time>
      </trkpt>
      <trkpt lat="47.60033" lon="-3.05428">
        <ele>10.23</ele>
        <time>2022-05-19T14:06:47Z</time>
      </trkpt>
      <trkpt lat="47.60017" lon="-3.05421">
        <ele>10.23</ele>
        <time>2022-05-19T14:07:02Z</time>
      </trkpt>
      <trkpt lat="47.59999" lon="-3.05412">
        <ele>9.75</ele>
        <time>2022-05-19T14:07:18Z</time>
      </trkpt>
      <trkpt lat="47.5998" lon="-3.05406">
        <ele>9.75</ele>
        <time>2022-05-19T14:07:35Z</time>
      </trkpt>
      <trkpt lat="47.59973" lon="-3.05403">
        <ele>8.79</ele>
        <time>2022-05-19T14:07:41Z</time>
      </trkpt>
      <trkpt lat="47.59957" lon="-3.05393">
        <ele>8.79</ele>
        <time>2022-05-19T14:07:56Z</time>
      </trkpt>
      <trkpt lat="47.59946" lon="-3.05387">
        <ele>8.79</ele>
        <time>2022-05-19T14:08:07Z</time>
      </trkpt>
      <trkpt lat="47.5993" lon="-3.05381">
        <ele>8.79</ele>
        <time>2022-05-19T14:08:23Z</time>
      </trkpt>
      <trkpt lat="47.59911" lon="-3.05373">
        <ele>8.31</ele>
        <time>2022-05-19T14:08:41Z</time>
      </trkpt>
      <trkpt lat="47.59894" lon="-3.05365">
        <ele>8.79</ele>
        <time>2022-05-19T14:08:58Z</time>
      </trkpt>
      <trkpt lat="47.59874" lon="-3.05358">
        <ele>9.75</ele>
        <time>2022-05-19T14:09:18Z</time>
      </trkpt>
      <trkpt lat="47.59859" lon="-3.05351">
        <ele>9.27</ele>
        <time>2022-05-19T14:09:32Z</time>
      </trkpt>
      <trkpt lat="47.59847" lon="-3.05345">
        <ele>9.75</ele>
        <time>2022-05-19T14:09:42Z</time>
      </trkpt>
      <trkpt lat="47.59829" lon="-3.05338">
        <ele>10.23</ele>
        <time>2022-05-19T14:09:58Z</time>
      </trkpt>
      <trkpt lat="47.59808" lon="-3.0533">
        <ele>10.71</ele>
        <time>2022-05-19T14:10:16Z</time>
      </trkpt>
      <trkpt lat="47.59789" lon="-3.05322">
        <ele>11.19</ele>
        <time>2022-05-19T14:10:32Z</time>
      </trkpt>
      <trkpt lat="47.5977" lon="-3.05313">
        <ele>12.15</ele>
        <time>2022-05-19T14:10:50Z</time>
      </trkpt>
      <trkpt lat="47.59749" lon="-3.05306">
        <ele>13.12</ele>
        <time>2022-05-19T14:11:10Z</time>
      </trkpt>
      <trkpt lat="47.59741" lon="-3.05302">
        <ele>14.08</ele>
        <time>2022-05-19T14:11:18Z</time>
      </trkpt>
      <trkpt lat="47.5972" lon="-3.05298">
        <ele>14.56</ele>
        <time>2022-05-19T14:11:37Z</time>
      </trkpt>
      <trkpt lat="47.59706" lon="-3.0529">
        <ele>14.56</ele>
        <time>2022-05-19T14:11:54Z</time>
      </trkpt>
      <trkpt lat="47.59701" lon="-3.05288">
        <ele>15.04</ele>
        <time>2022-05-19T14:12:19Z</time>
      </trkpt>
      <trkpt lat="47.59702" lon="-3.05284">
        <ele>14.56</ele>
        <time>2022-05-19T14:12:45Z</time>
      </trkpt>
      <trkpt lat="47.59707" lon="-3.05283">
        <ele>15.04</ele>
        <time>2022-05-19T14:13:10Z</time>
      </trkpt>
      <trkpt lat="47.59708" lon="-3.05286">
        <ele>14.56</ele>
        <time>2022-05-19T14:13:25Z</time>
      </trkpt>
      <trkpt lat="47.5971" lon="-3.0529">
        <ele>14.56</ele>
        <time>2022-05-19T14:13:50Z</time>
      </trkpt>
      <trkpt lat="47.59713" lon="-3.05284">
        <ele>14.56</ele>
        <time>2022-05-19T14:14:11Z</time>
      </trkpt>
      <trkpt lat="47.59716" lon="-3.05288">
        <ele>14.56</ele>
        <time>2022-05-19T14:14:28Z</time>
      </trkpt>
      <trkpt lat="47.59715" lon="-3.05289">
        <ele>14.56</ele>
        <time>2022-05-19T14:14:57Z</time>
      </trkpt>
      <trkpt lat="47.59718" lon="-3.05307">
        <ele>14.56</ele>
        <time>2022-05-19T14:15:13Z</time>
      </trkpt>
      <trkpt lat="47.59717" lon="-3.05314">
        <ele>15.04</ele>
        <time>2022-05-19T14:15:17Z</time>
      </trkpt>
      <trkpt lat="47.59714" lon="-3.0535">
        <ele>16</ele>
        <time>2022-05-19T14:15:37Z</time>
      </trkpt>
      <trkpt lat="47.59707" lon="-3.05377">
        <ele>16.48</ele>
        <time>2022-05-19T14:15:54Z</time>
      </trkpt>
      <trkpt lat="47.597" lon="-3.05406">
        <ele>16.96</ele>
        <time>2022-05-19T14:16:13Z</time>
      </trkpt>
      <trkpt lat="47.59698" lon="-3.0541">
        <ele>16.96</ele>
        <time>2022-05-19T14:16:16Z</time>
      </trkpt>
      <trkpt lat="47.59686" lon="-3.05434">
        <ele>17.44</ele>
        <time>2022-05-19T14:16:34Z</time>
      </trkpt>
      <trkpt lat="47.59674" lon="-3.05461">
        <ele>18.4</ele>
        <time>2022-05-19T14:16:52Z</time>
      </trkpt>
      <trkpt lat="47.59661" lon="-3.05482">
        <ele>18.4</ele>
        <time>2022-05-19T14:17:10Z</time>
      </trkpt>
      <trkpt lat="47.59644" lon="-3.05505">
        <ele>18.88</ele>
        <time>2022-05-19T14:17:29Z</time>
      </trkpt>
      <trkpt lat="47.59624" lon="-3.05521">
        <ele>19.84</ele>
        <time>2022-05-19T14:17:48Z</time>
      </trkpt>
      <trkpt lat="47.59618" lon="-3.05511">
        <ele>20.32</ele>
        <time>2022-05-19T14:17:57Z</time>
      </trkpt>
      <trkpt lat="47.59618" lon="-3.0551">
        <ele>21.29</ele>
        <time>2022-05-19T14:17:58Z</time>
      </trkpt>
      <trkpt lat="47.59621" lon="-3.05491">
        <ele>22.25</ele>
        <time>2022-05-19T14:18:12Z</time>
      </trkpt>
      <trkpt lat="47.59618" lon="-3.05466">
        <ele>23.69</ele>
        <time>2022-05-19T14:18:27Z</time>
      </trkpt>
      <trkpt lat="47.59608" lon="-3.05449">
        <ele>24.17</ele>
        <time>2022-05-19T14:18:41Z</time>
      </trkpt>
      <trkpt lat="47.59594" lon="-3.05433">
        <ele>24.65</ele>
        <time>2022-05-19T14:18:58Z</time>
      </trkpt>
      <trkpt lat="47.59591" lon="-3.05423">
        <ele>24.17</ele>
        <time>2022-05-19T14:19:07Z</time>
      </trkpt>
      <trkpt lat="47.59581" lon="-3.05412">
        <ele>24.17</ele>
        <time>2022-05-19T14:19:23Z</time>
      </trkpt>
      <trkpt lat="47.59572" lon="-3.05413">
        <ele>24.65</ele>
        <time>2022-05-19T14:19:37Z</time>
      </trkpt>
      <trkpt lat="47.5957" lon="-3.05412">
        <ele>24.65</ele>
        <time>2022-05-19T14:19:56Z</time>
      </trkpt>
      <trkpt lat="47.59572" lon="-3.05411">
        <ele>25.13</ele>
        <time>2022-05-19T14:20:19Z</time>
      </trkpt>
      <trkpt lat="47.59571" lon="-3.05411">
        <ele>24.17</ele>
        <time>2022-05-19T14:20:41Z</time>
      </trkpt>
      <trkpt lat="47.59573" lon="-3.05412">
        <ele>24.65</ele>
        <time>2022-05-19T14:21:00Z</time>
      </trkpt>
      <trkpt lat="47.59575" lon="-3.05419">
        <ele>24.65</ele>
        <time>2022-05-19T14:21:22Z</time>
      </trkpt>
      <trkpt lat="47.59573" lon="-3.05415">
        <ele>24.17</ele>
        <time>2022-05-19T14:21:35Z</time>
      </trkpt>
      <trkpt lat="47.59572" lon="-3.05414">
        <ele>24.65</ele>
        <time>2022-05-19T14:21:55Z</time>
      </trkpt>
      <trkpt lat="47.59569" lon="-3.05416">
        <ele>24.65</ele>
        <time>2022-05-19T14:22:23Z</time>
      </trkpt>
      <trkpt lat="47.59566" lon="-3.05415">
        <ele>25.13</ele>
        <time>2022-05-19T14:22:41Z</time>
      </trkpt>
      <trkpt lat="47.59567" lon="-3.05407">
        <ele>25.13</ele>
        <time>2022-05-19T14:22:59Z</time>
      </trkpt>
      <trkpt lat="47.59568" lon="-3.05416">
        <ele>24.65</ele>
        <time>2022-05-19T14:23:24Z</time>
      </trkpt>
      <trkpt lat="47.59571" lon="-3.05404">
        <ele>24.65</ele>
        <time>2022-05-19T14:23:44Z</time>
      </trkpt>
      <trkpt lat="47.59572" lon="-3.05406">
        <ele>24.65</ele>
        <time>2022-05-19T14:24:12Z</time>
      </trkpt>
      <trkpt lat="47.59573" lon="-3.05404">
        <ele>25.13</ele>
        <time>2022-05-19T14:24:37Z</time>
      </trkpt>
      <trkpt lat="47.59571" lon="-3.05409">
        <ele>24.17</ele>
        <time>2022-05-19T14:25:09Z</time>
      </trkpt>
      <trkpt lat="47.5957" lon="-3.05411">
        <ele>24.65</ele>
        <time>2022-05-19T14:25:37Z</time>
      </trkpt>
      <trkpt lat="47.59569" lon="-3.05408">
        <ele>24.65</ele>
        <time>2022-05-19T14:25:57Z</time>
      </trkpt>
      <trkpt lat="47.5957" lon="-3.05407">
        <ele>24.65</ele>
        <time>2022-05-19T14:26:23Z</time>
      </trkpt>
      <trkpt lat="47.59568" lon="-3.05414">
        <ele>25.13</ele>
        <time>2022-05-19T14:26:38Z</time>
      </trkpt>
      <trkpt lat="47.59566" lon="-3.05407">
        <ele>25.13</ele>
        <time>2022-05-19T14:27:01Z</time>
      </trkpt>
      <trkpt lat="47.59567" lon="-3.05402">
        <ele>25.13</ele>
        <time>2022-05-19T14:27:24Z</time>
      </trkpt>
      <trkpt lat="47.5957" lon="-3.05405">
        <ele>24.65</ele>
        <time>2022-05-19T14:27:44Z</time>
      </trkpt>
      <trkpt lat="47.5957" lon="-3.05409">
        <ele>25.61</ele>
        <time>2022-05-19T14:28:15Z</time>
      </trkpt>
      <trkpt lat="47.5957" lon="-3.05405">
        <ele>24.17</ele>
        <time>2022-05-19T14:28:28Z</time>
      </trkpt>
      <trkpt lat="47.59572" lon="-3.054">
        <ele>25.13</ele>
        <time>2022-05-19T14:28:53Z</time>
      </trkpt>
      <trkpt lat="47.59568" lon="-3.05406">
        <ele>25.13</ele>
        <time>2022-05-19T14:29:16Z</time>
      </trkpt>
      <trkpt lat="47.59565" lon="-3.05425">
        <ele>26.09</ele>
        <time>2022-05-19T14:29:30Z</time>
      </trkpt>
      <trkpt lat="47.59565" lon="-3.05437">
        <ele>25.13</ele>
        <time>2022-05-19T14:29:42Z</time>
      </trkpt>
      <trkpt lat="47.59565" lon="-3.05439">
        <ele>25.61</ele>
        <time>2022-05-19T14:29:44Z</time>
      </trkpt>
      <trkpt lat="47.59579" lon="-3.05451">
        <ele>24.65</ele>
        <time>2022-05-19T14:30:01Z</time>
      </trkpt>
      <trkpt lat="47.59596" lon="-3.05472">
        <ele>23.21</ele>
        <time>2022-05-19T14:30:19Z</time>
      </trkpt>
      <trkpt lat="47.5961" lon="-3.0549">
        <ele>22.25</ele>
        <time>2022-05-19T14:30:37Z</time>
      </trkpt>
      <trkpt lat="47.5962" lon="-3.05492">
        <ele>20.81</ele>
        <time>2022-05-19T14:30:50Z</time>
      </trkpt>
      <trkpt lat="47.59622" lon="-3.05495">
        <ele>20.81</ele>
        <time>2022-05-19T14:30:53Z</time>
      </trkpt>
      <trkpt lat="47.59621" lon="-3.05521">
        <ele>19.36</ele>
        <time>2022-05-19T14:31:10Z</time>
      </trkpt>
      <trkpt lat="47.59623" lon="-3.05539">
        <ele>16.96</ele>
        <time>2022-05-19T14:31:26Z</time>
      </trkpt>
      <trkpt lat="47.59625" lon="-3.05555">
        <ele>14.56</ele>
        <time>2022-05-19T14:31:43Z</time>
      </trkpt>
      <trkpt lat="47.5963" lon="-3.05573">
        <ele>12.63</ele>
        <time>2022-05-19T14:32:00Z</time>
      </trkpt>
      <trkpt lat="47.59633" lon="-3.05591">
        <ele>9.75</ele>
        <time>2022-05-19T14:32:17Z</time>
      </trkpt>
      <trkpt lat="47.59637" lon="-3.05606">
        <ele>7.35</ele>
        <time>2022-05-19T14:32:31Z</time>
      </trkpt>
      <trkpt lat="47.59636" lon="-3.0562">
        <ele>5.42</ele>
        <time>2022-05-19T14:32:47Z</time>
      </trkpt>
      <trkpt lat="47.59637" lon="-3.05633">
        <ele>4.46</ele>
        <time>2022-05-19T14:33:01Z</time>
      </trkpt>
      <trkpt lat="47.59638" lon="-3.05642">
        <ele>3.02</ele>
        <time>2022-05-19T14:33:15Z</time>
      </trkpt>
      <trkpt lat="47.59646" lon="-3.05654">
        <ele>2.06</ele>
        <time>2022-05-19T14:33:30Z</time>
      </trkpt>
      <trkpt lat="47.59647" lon="-3.05654">
        <ele>2.06</ele>
        <time>2022-05-19T14:33:32Z</time>
      </trkpt>
      <trkpt lat="47.59661" lon="-3.05659">
        <ele>2.06</ele>
        <time>2022-05-19T14:33:46Z</time>
      </trkpt>
      <trkpt lat="47.5968" lon="-3.05671">
        <ele>2.06</ele>
        <time>2022-05-19T14:34:04Z</time>
      </trkpt>
      <trkpt lat="47.59695" lon="-3.05684">
        <ele>3.5</ele>
        <time>2022-05-19T14:34:21Z</time>
      </trkpt>
      <trkpt lat="47.59709" lon="-3.05688">
        <ele>3.98</ele>
        <time>2022-05-19T14:34:38Z</time>
      </trkpt>
      <trkpt lat="47.59715" lon="-3.05687">
        <ele>4.94</ele>
        <time>2022-05-19T14:34:52Z</time>
      </trkpt>
      <trkpt lat="47.59723" lon="-3.05683">
        <ele>6.87</ele>
        <time>2022-05-19T14:35:09Z</time>
      </trkpt>
      <trkpt lat="47.59731" lon="-3.05674">
        <ele>7.35</ele>
        <time>2022-05-19T14:35:27Z</time>
      </trkpt>
      <trkpt lat="47.59735" lon="-3.05663">
        <ele>8.79</ele>
        <time>2022-05-19T14:35:44Z</time>
      </trkpt>
      <trkpt lat="47.5974" lon="-3.05674">
        <ele>9.27</ele>
        <time>2022-05-19T14:35:57Z</time>
      </trkpt>
      <trkpt lat="47.59739" lon="-3.05686">
        <ele>9.27</ele>
        <time>2022-05-19T14:36:10Z</time>
      </trkpt>
      <trkpt lat="47.59739" lon="-3.05693">
        <ele>9.27</ele>
        <time>2022-05-19T14:36:18Z</time>
      </trkpt>
      <trkpt lat="47.59737" lon="-3.05705">
        <ele>8.31</ele>
        <time>2022-05-19T14:36:26Z</time>
      </trkpt>
      <trkpt lat="47.59736" lon="-3.05722">
        <ele>7.83</ele>
        <time>2022-05-19T14:36:42Z</time>
      </trkpt>
      <trkpt lat="47.59736" lon="-3.05739">
        <ele>8.31</ele>
        <time>2022-05-19T14:36:58Z</time>
      </trkpt>
      <trkpt lat="47.59735" lon="-3.05755">
        <ele>8.79</ele>
        <time>2022-05-19T14:37:11Z</time>
      </trkpt>
      <trkpt lat="47.59735" lon="-3.05761">
        <ele>7.83</ele>
        <time>2022-05-19T14:37:19Z</time>
      </trkpt>
      <trkpt lat="47.59734" lon="-3.05767">
        <ele>8.31</ele>
        <time>2022-05-19T14:37:23Z</time>
      </trkpt>
      <trkpt lat="47.59734" lon="-3.05794">
        <ele>8.31</ele>
        <time>2022-05-19T14:37:38Z</time>
      </trkpt>
      <trkpt lat="47.59735" lon="-3.05803">
        <ele>8.31</ele>
        <time>2022-05-19T14:37:53Z</time>
      </trkpt>
      <trkpt lat="47.59735" lon="-3.05813">
        <ele>8.31</ele>
        <time>2022-05-19T14:38:08Z</time>
      </trkpt>
      <trkpt lat="47.59736" lon="-3.05818">
        <ele>7.35</ele>
        <time>2022-05-19T14:38:16Z</time>
      </trkpt>
      <trkpt lat="47.5974" lon="-3.05825">
        <ele>6.87</ele>
        <time>2022-05-19T14:38:23Z</time>
      </trkpt>
      <trkpt lat="47.59744" lon="-3.05828">
        <ele>7.35</ele>
        <time>2022-05-19T14:38:27Z</time>
      </trkpt>
      <trkpt lat="47.59762" lon="-3.05835">
        <ele>8.31</ele>
        <time>2022-05-19T14:38:44Z</time>
      </trkpt>
      <trkpt lat="47.59767" lon="-3.05836">
        <ele>8.31</ele>
        <time>2022-05-19T14:38:49Z</time>
      </trkpt>
      <trkpt lat="47.59785" lon="-3.05827">
        <ele>9.27</ele>
        <time>2022-05-19T14:39:06Z</time>
      </trkpt>
      <trkpt lat="47.59789" lon="-3.05825">
        <ele>9.27</ele>
        <time>2022-05-19T14:39:11Z</time>
      </trkpt>
      <trkpt lat="47.59803" lon="-3.05812">
        <ele>8.79</ele>
        <time>2022-05-19T14:39:26Z</time>
      </trkpt>
      <trkpt lat="47.59809" lon="-3.05806">
        <ele>8.79</ele>
        <time>2022-05-19T14:39:33Z</time>
      </trkpt>
      <trkpt lat="47.59814" lon="-3.05797">
        <ele>8.79</ele>
        <time>2022-05-19T14:39:41Z</time>
      </trkpt>
      <trkpt lat="47.59822" lon="-3.05783">
        <ele>9.75</ele>
        <time>2022-05-19T14:39:52Z</time>
      </trkpt>
      <trkpt lat="47.5983" lon="-3.05772">
        <ele>9.75</ele>
        <time>2022-05-19T14:40:05Z</time>
      </trkpt>
      <trkpt lat="47.59842" lon="-3.05751">
        <ele>9.27</ele>
        <time>2022-05-19T14:40:22Z</time>
      </trkpt>
      <trkpt lat="47.59859" lon="-3.05741">
        <ele>9.27</ele>
        <time>2022-05-19T14:40:38Z</time>
      </trkpt>
      <trkpt lat="47.59878" lon="-3.05733">
        <ele>8.31</ele>
        <time>2022-05-19T14:40:54Z</time>
      </trkpt>
      <trkpt lat="47.59895" lon="-3.05731">
        <ele>8.31</ele>
        <time>2022-05-19T14:41:10Z</time>
      </trkpt>
      <trkpt lat="47.59912" lon="-3.05739">
        <ele>9.27</ele>
        <time>2022-05-19T14:41:25Z</time>
      </trkpt>
      <trkpt lat="47.59929" lon="-3.05752">
        <ele>8.79</ele>
        <time>2022-05-19T14:41:41Z</time>
      </trkpt>
      <trkpt lat="47.59939" lon="-3.05764">
        <ele>10.71</ele>
        <time>2022-05-19T14:41:55Z</time>
      </trkpt>
      <trkpt lat="47.59943" lon="-3.0577">
        <ele>10.23</ele>
        <time>2022-05-19T14:42:09Z</time>
      </trkpt>
      <trkpt lat="47.59946" lon="-3.05782">
        <ele>10.71</ele>
        <time>2022-05-19T14:42:23Z</time>
      </trkpt>
      <trkpt lat="47.59947" lon="-3.05782">
        <ele>11.19</ele>
        <time>2022-05-19T14:42:38Z</time>
      </trkpt>
      <trkpt lat="47.59947" lon="-3.05783">
        <ele>11.67</ele>
        <time>2022-05-19T14:42:44Z</time>
      </trkpt>
      <trkpt lat="47.59949" lon="-3.05794">
        <ele>12.15</ele>
        <time>2022-05-19T14:42:55Z</time>
      </trkpt>
      <trkpt lat="47.59944" lon="-3.05812">
        <ele>12.63</ele>
        <time>2022-05-19T14:43:11Z</time>
      </trkpt>
      <trkpt lat="47.59934" lon="-3.05831">
        <ele>13.6</ele>
        <time>2022-05-19T14:43:25Z</time>
      </trkpt>
      <trkpt lat="47.59926" lon="-3.0585">
        <ele>14.56</ele>
        <time>2022-05-19T14:43:41Z</time>
      </trkpt>
      <trkpt lat="47.59914" lon="-3.05869">
        <ele>14.08</ele>
        <time>2022-05-19T14:44:00Z</time>
      </trkpt>
      <trkpt lat="47.59905" lon="-3.05889">
        <ele>15.04</ele>
        <time>2022-05-19T14:44:18Z</time>
      </trkpt>
      <trkpt lat="47.59904" lon="-3.05892">
        <ele>14.56</ele>
        <time>2022-05-19T14:44:20Z</time>
      </trkpt>
      <trkpt lat="47.59897" lon="-3.05917">
        <ele>14.08</ele>
        <time>2022-05-19T14:44:35Z</time>
      </trkpt>
      <trkpt lat="47.59895" lon="-3.05938">
        <ele>14.56</ele>
        <time>2022-05-19T14:44:50Z</time>
      </trkpt>
      <trkpt lat="47.59896" lon="-3.05948">
        <ele>15.52</ele>
        <time>2022-05-19T14:44:55Z</time>
      </trkpt>
      <trkpt lat="47.59893" lon="-3.05984">
        <ele>16</ele>
        <time>2022-05-19T14:45:11Z</time>
      </trkpt>
      <trkpt lat="47.59884" lon="-3.06007">
        <ele>15.52</ele>
        <time>2022-05-19T14:45:24Z</time>
      </trkpt>
      <trkpt lat="47.59881" lon="-3.06019">
        <ele>15.52</ele>
        <time>2022-05-19T14:45:32Z</time>
      </trkpt>
      <trkpt lat="47.59877" lon="-3.06026">
        <ele>15.52</ele>
        <time>2022-05-19T14:45:37Z</time>
      </trkpt>
      <trkpt lat="47.59862" lon="-3.06042">
        <ele>16.48</ele>
        <time>2022-05-19T14:45:54Z</time>
      </trkpt>
      <trkpt lat="47.59854" lon="-3.06043">
        <ele>16</ele>
        <time>2022-05-19T14:46:03Z</time>
      </trkpt>
      <trkpt lat="47.59833" lon="-3.06047">
        <ele>16</ele>
        <time>2022-05-19T14:46:22Z</time>
      </trkpt>
      <trkpt lat="47.59819" lon="-3.06054">
        <ele>15.52</ele>
        <time>2022-05-19T14:46:38Z</time>
      </trkpt>
      <trkpt lat="47.59803" lon="-3.06059">
        <ele>15.04</ele>
        <time>2022-05-19T14:46:55Z</time>
      </trkpt>
      <trkpt lat="47.59785" lon="-3.06063">
        <ele>14.56</ele>
        <time>2022-05-19T14:47:11Z</time>
      </trkpt>
      <trkpt lat="47.59766" lon="-3.06068">
        <ele>13.12</ele>
        <time>2022-05-19T14:47:25Z</time>
      </trkpt>
      <trkpt lat="47.59737" lon="-3.06069">
        <ele>12.63</ele>
        <time>2022-05-19T14:47:46Z</time>
      </trkpt>
      <trkpt lat="47.59729" lon="-3.06085">
        <ele>12.63</ele>
        <time>2022-05-19T14:48:01Z</time>
      </trkpt>
      <trkpt lat="47.59726" lon="-3.0609">
        <ele>12.15</ele>
        <time>2022-05-19T14:48:06Z</time>
      </trkpt>
      <trkpt lat="47.59723" lon="-3.0609">
        <ele>12.63</ele>
        <time>2022-05-19T14:48:08Z</time>
      </trkpt>
      <trkpt lat="47.59719" lon="-3.06099">
        <ele>12.63</ele>
        <time>2022-05-19T14:48:18Z</time>
      </trkpt>
      <trkpt lat="47.5971" lon="-3.06123">
        <ele>13.6</ele>
        <time>2022-05-19T14:48:36Z</time>
      </trkpt>
      <trkpt lat="47.59705" lon="-3.06146">
        <ele>14.08</ele>
        <time>2022-05-19T14:48:51Z</time>
      </trkpt>
      <trkpt lat="47.5969" lon="-3.06173">
        <ele>14.08</ele>
        <time>2022-05-19T14:49:08Z</time>
      </trkpt>
      <trkpt lat="47.59675" lon="-3.06199">
        <ele>14.08</ele>
        <time>2022-05-19T14:49:26Z</time>
      </trkpt>
      <trkpt lat="47.59673" lon="-3.06203">
        <ele>14.08</ele>
        <time>2022-05-19T14:49:28Z</time>
      </trkpt>
      <trkpt lat="47.59666" lon="-3.06217">
        <ele>13.12</ele>
        <time>2022-05-19T14:49:37Z</time>
      </trkpt>
      <trkpt lat="47.59652" lon="-3.0624">
        <ele>13.12</ele>
        <time>2022-05-19T14:49:54Z</time>
      </trkpt>
      <trkpt lat="47.59641" lon="-3.06268">
        <ele>12.63</ele>
        <time>2022-05-19T14:50:09Z</time>
      </trkpt>
      <trkpt lat="47.59636" lon="-3.06291">
        <ele>13.6</ele>
        <time>2022-05-19T14:50:23Z</time>
      </trkpt>
      <trkpt lat="47.59637" lon="-3.06318">
        <ele>14.08</ele>
        <time>2022-05-19T14:50:40Z</time>
      </trkpt>
      <trkpt lat="47.59636" lon="-3.06325">
        <ele>12.15</ele>
        <time>2022-05-19T14:50:44Z</time>
      </trkpt>
      <trkpt lat="47.59626" lon="-3.06355">
        <ele>13.12</ele>
        <time>2022-05-19T14:51:02Z</time>
      </trkpt>
      <trkpt lat="47.5962" lon="-3.06366">
        <ele>12.63</ele>
        <time>2022-05-19T14:51:10Z</time>
      </trkpt>
      <trkpt lat="47.59614" lon="-3.06383">
        <ele>12.63</ele>
        <time>2022-05-19T14:51:21Z</time>
      </trkpt>
      <trkpt lat="47.5961" lon="-3.06389">
        <ele>14.08</ele>
        <time>2022-05-19T14:51:26Z</time>
      </trkpt>
      <trkpt lat="47.59596" lon="-3.06413">
        <ele>12.63</ele>
        <time>2022-05-19T14:51:42Z</time>
      </trkpt>
      <trkpt lat="47.59589" lon="-3.06425">
        <ele>13.6</ele>
        <time>2022-05-19T14:51:55Z</time>
      </trkpt>
      <trkpt lat="47.59576" lon="-3.06453">
        <ele>15.04</ele>
        <time>2022-05-19T14:52:11Z</time>
      </trkpt>
      <trkpt lat="47.59563" lon="-3.06485">
        <ele>15.52</ele>
        <time>2022-05-19T14:52:26Z</time>
      </trkpt>
      <trkpt lat="47.59553" lon="-3.0651">
        <ele>14.56</ele>
        <time>2022-05-19T14:52:41Z</time>
      </trkpt>
      <trkpt lat="47.59544" lon="-3.06538">
        <ele>14.08</ele>
        <time>2022-05-19T14:52:56Z</time>
      </trkpt>
      <trkpt lat="47.59543" lon="-3.06541">
        <ele>13.12</ele>
        <time>2022-05-19T14:52:58Z</time>
      </trkpt>
      <trkpt lat="47.59539" lon="-3.06563">
        <ele>13.6</ele>
        <time>2022-05-19T14:53:11Z</time>
      </trkpt>
      <trkpt lat="47.59535" lon="-3.06584">
        <ele>14.56</ele>
        <time>2022-05-19T14:53:24Z</time>
      </trkpt>
      <trkpt lat="47.59538" lon="-3.06616">
        <ele>14.56</ele>
        <time>2022-05-19T14:53:39Z</time>
      </trkpt>
      <trkpt lat="47.5953" lon="-3.06633">
        <ele>14.08</ele>
        <time>2022-05-19T14:53:52Z</time>
      </trkpt>
      <trkpt lat="47.59529" lon="-3.06635">
        <ele>14.08</ele>
        <time>2022-05-19T14:54:05Z</time>
      </trkpt>
      <trkpt lat="47.59528" lon="-3.06635">
        <ele>14.08</ele>
        <time>2022-05-19T14:54:18Z</time>
      </trkpt>
      <trkpt lat="47.59505" lon="-3.06633">
        <ele>13.12</ele>
        <time>2022-05-19T14:54:37Z</time>
      </trkpt>
      <trkpt lat="47.59488" lon="-3.06632">
        <ele>10.71</ele>
        <time>2022-05-19T14:54:56Z</time>
      </trkpt>
      <trkpt lat="47.59469" lon="-3.06627">
        <ele>10.23</ele>
        <time>2022-05-19T14:55:13Z</time>
      </trkpt>
      <trkpt lat="47.59443" lon="-3.06623">
        <ele>8.79</ele>
        <time>2022-05-19T14:55:32Z</time>
      </trkpt>
      <trkpt lat="47.59419" lon="-3.06623">
        <ele>9.27</ele>
        <time>2022-05-19T14:55:50Z</time>
      </trkpt>
      <trkpt lat="47.59393" lon="-3.0662">
        <ele>9.75</ele>
        <time>2022-05-19T14:56:10Z</time>
      </trkpt>
      <trkpt lat="47.59384" lon="-3.06619">
        <ele>10.71</ele>
        <time>2022-05-19T14:56:17Z</time>
      </trkpt>
      <trkpt lat="47.59372" lon="-3.06615">
        <ele>10.71</ele>
        <time>2022-05-19T14:56:28Z</time>
      </trkpt>
      <trkpt lat="47.59366" lon="-3.06614">
        <ele>11.67</ele>
        <time>2022-05-19T14:56:34Z</time>
      </trkpt>
      <trkpt lat="47.59359" lon="-3.06614">
        <ele>12.15</ele>
        <time>2022-05-19T14:56:39Z</time>
      </trkpt>
      <trkpt lat="47.59333" lon="-3.06613">
        <ele>13.6</ele>
        <time>2022-05-19T14:56:59Z</time>
      </trkpt>
      <trkpt lat="47.59329" lon="-3.06615">
        <ele>13.12</ele>
        <time>2022-05-19T14:57:05Z</time>
      </trkpt>
      <trkpt lat="47.59321" lon="-3.06638">
        <ele>12.15</ele>
        <time>2022-05-19T14:57:19Z</time>
      </trkpt>
      <trkpt lat="47.5932" lon="-3.06639">
        <ele>12.63</ele>
        <time>2022-05-19T14:57:20Z</time>
      </trkpt>
      <trkpt lat="47.59318" lon="-3.06641">
        <ele>13.12</ele>
        <time>2022-05-19T14:57:22Z</time>
      </trkpt>
      <trkpt lat="47.59316" lon="-3.06644">
        <ele>13.6</ele>
        <time>2022-05-19T14:57:38Z</time>
      </trkpt>
      <trkpt lat="47.59311" lon="-3.06653">
        <ele>13.12</ele>
        <time>2022-05-19T14:57:47Z</time>
      </trkpt>
      <trkpt lat="47.59303" lon="-3.06674">
        <ele>13.12</ele>
        <time>2022-05-19T14:58:03Z</time>
      </trkpt>
      <trkpt lat="47.59293" lon="-3.06695">
        <ele>11.67</ele>
        <time>2022-05-19T14:58:17Z</time>
      </trkpt>
      <trkpt lat="47.59279" lon="-3.06709">
        <ele>12.15</ele>
        <time>2022-05-19T14:58:30Z</time>
      </trkpt>
      <trkpt lat="47.59262" lon="-3.06726">
        <ele>11.67</ele>
        <time>2022-05-19T14:58:47Z</time>
      </trkpt>
      <trkpt lat="47.59246" lon="-3.06736">
        <ele>12.15</ele>
        <time>2022-05-19T14:59:05Z</time>
      </trkpt>
      <trkpt lat="47.59232" lon="-3.06737">
        <ele>11.67</ele>
        <time>2022-05-19T14:59:17Z</time>
      </trkpt>
      <trkpt lat="47.59214" lon="-3.06739">
        <ele>10.71</ele>
        <time>2022-05-19T14:59:32Z</time>
      </trkpt>
      <trkpt lat="47.59196" lon="-3.06747">
        <ele>10.71</ele>
        <time>2022-05-19T14:59:48Z</time>
      </trkpt>
      <trkpt lat="47.59183" lon="-3.06752">
        <ele>9.75</ele>
        <time>2022-05-19T14:59:59Z</time>
      </trkpt>
      <trkpt lat="47.59165" lon="-3.0676">
        <ele>9.75</ele>
        <time>2022-05-19T15:00:14Z</time>
      </trkpt>
      <trkpt lat="47.59135" lon="-3.06769">
        <ele>9.27</ele>
        <time>2022-05-19T15:00:33Z</time>
      </trkpt>
      <trkpt lat="47.59115" lon="-3.06781">
        <ele>8.31</ele>
        <time>2022-05-19T15:00:51Z</time>
      </trkpt>
      <trkpt lat="47.59099" lon="-3.06791">
        <ele>8.31</ele>
        <time>2022-05-19T15:01:04Z</time>
      </trkpt>
      <trkpt lat="47.59084" lon="-3.068">
        <ele>7.83</ele>
        <time>2022-05-19T15:01:17Z</time>
      </trkpt>
      <trkpt lat="47.59072" lon="-3.06807">
        <ele>7.83</ele>
        <time>2022-05-19T15:01:27Z</time>
      </trkpt>
      <trkpt lat="47.59054" lon="-3.06819">
        <ele>7.35</ele>
        <time>2022-05-19T15:01:39Z</time>
      </trkpt>
      <trkpt lat="47.59041" lon="-3.06824">
        <ele>7.35</ele>
        <time>2022-05-19T15:01:57Z</time>
      </trkpt>
      <trkpt lat="47.59027" lon="-3.06829">
        <ele>7.35</ele>
        <time>2022-05-19T15:02:12Z</time>
      </trkpt>
      <trkpt lat="47.59015" lon="-3.06831">
        <ele>7.35</ele>
        <time>2022-05-19T15:02:23Z</time>
      </trkpt>
      <trkpt lat="47.59002" lon="-3.0683">
        <ele>7.35</ele>
        <time>2022-05-19T15:02:33Z</time>
      </trkpt>
      <trkpt lat="47.58989" lon="-3.06831">
        <ele>6.39</ele>
        <time>2022-05-19T15:02:42Z</time>
      </trkpt>
      <trkpt lat="47.58977" lon="-3.06834">
        <ele>5.42</ele>
        <time>2022-05-19T15:02:53Z</time>
      </trkpt>
      <trkpt lat="47.58961" lon="-3.06844">
        <ele>4.46</ele>
        <time>2022-05-19T15:03:08Z</time>
      </trkpt>
      <trkpt lat="47.58941" lon="-3.06857">
        <ele>5.42</ele>
        <time>2022-05-19T15:03:25Z</time>
      </trkpt>
      <trkpt lat="47.5892" lon="-3.06872">
        <ele>6.39</ele>
        <time>2022-05-19T15:03:42Z</time>
      </trkpt>
      <trkpt lat="47.58905" lon="-3.06883">
        <ele>7.35</ele>
        <time>2022-05-19T15:03:52Z</time>
      </trkpt>
      <trkpt lat="47.58891" lon="-3.06896">
        <ele>7.35</ele>
        <time>2022-05-19T15:04:06Z</time>
      </trkpt>
      <trkpt lat="47.58871" lon="-3.06917">
        <ele>8.31</ele>
        <time>2022-05-19T15:04:25Z</time>
      </trkpt>
      <trkpt lat="47.58863" lon="-3.06927">
        <ele>7.83</ele>
        <time>2022-05-19T15:04:39Z</time>
      </trkpt>
      <trkpt lat="47.58856" lon="-3.06939">
        <ele>8.79</ele>
        <time>2022-05-19T15:04:57Z</time>
      </trkpt>
      <trkpt lat="47.58844" lon="-3.06962">
        <ele>9.27</ele>
        <time>2022-05-19T15:05:16Z</time>
      </trkpt>
      <trkpt lat="47.58837" lon="-3.06973">
        <ele>9.75</ele>
        <time>2022-05-19T15:05:28Z</time>
      </trkpt>
      <trkpt lat="47.58833" lon="-3.06976">
        <ele>9.75</ele>
        <time>2022-05-19T15:05:40Z</time>
      </trkpt>
      <trkpt lat="47.58833" lon="-3.06979">
        <ele>9.75</ele>
        <time>2022-05-19T15:05:54Z</time>
      </trkpt>
      <trkpt lat="47.58833" lon="-3.06978">
        <ele>9.27</ele>
        <time>2022-05-19T15:06:10Z</time>
      </trkpt>
      <trkpt lat="47.58833" lon="-3.06978">
        <ele>9.27</ele>
        <time>2022-05-19T15:06:16Z</time>
      </trkpt>
      <trkpt lat="47.58832" lon="-3.06981">
        <ele>9.75</ele>
        <time>2022-05-19T15:06:19Z</time>
      </trkpt>
      <trkpt lat="47.58822" lon="-3.07003">
        <ele>9.75</ele>
        <time>2022-05-19T15:06:35Z</time>
      </trkpt>
      <trkpt lat="47.58807" lon="-3.07027">
        <ele>10.71</ele>
        <time>2022-05-19T15:06:51Z</time>
      </trkpt>
      <trkpt lat="47.58791" lon="-3.07037">
        <ele>11.67</ele>
        <time>2022-05-19T15:07:05Z</time>
      </trkpt>
      <trkpt lat="47.58785" lon="-3.07039">
        <ele>12.63</ele>
        <time>2022-05-19T15:07:10Z</time>
      </trkpt>
      <trkpt lat="47.58766" lon="-3.07048">
        <ele>13.12</ele>
        <time>2022-05-19T15:07:23Z</time>
      </trkpt>
      <trkpt lat="47.58756" lon="-3.07056">
        <ele>15.04</ele>
        <time>2022-05-19T15:07:31Z</time>
      </trkpt>
      <trkpt lat="47.58735" lon="-3.07059">
        <ele>15.52</ele>
        <time>2022-05-19T15:07:47Z</time>
      </trkpt>
      <trkpt lat="47.58717" lon="-3.07057">
        <ele>14.56</ele>
        <time>2022-05-19T15:08:00Z</time>
      </trkpt>
      <trkpt lat="47.58699" lon="-3.07056">
        <ele>14.56</ele>
        <time>2022-05-19T15:08:16Z</time>
      </trkpt>
      <trkpt lat="47.58701" lon="-3.07056">
        <ele>15.52</ele>
        <time>2022-05-19T15:08:21Z</time>
      </trkpt>
      <trkpt lat="47.58712" lon="-3.07055">
        <ele>15.04</ele>
        <time>2022-05-19T15:08:32Z</time>
      </trkpt>
      <trkpt lat="47.58715" lon="-3.07059">
        <ele>15.04</ele>
        <time>2022-05-19T15:08:36Z</time>
      </trkpt>
      <trkpt lat="47.5872" lon="-3.07068">
        <ele>18.4</ele>
        <time>2022-05-19T15:08:44Z</time>
      </trkpt>
      <trkpt lat="47.58721" lon="-3.0707">
        <ele>17.44</ele>
        <time>2022-05-19T15:08:45Z</time>
      </trkpt>
      <trkpt lat="47.58725" lon="-3.07081">
        <ele>18.4</ele>
        <time>2022-05-19T15:08:54Z</time>
      </trkpt>
      <trkpt lat="47.58728" lon="-3.07086">
        <ele>19.36</ele>
        <time>2022-05-19T15:08:58Z</time>
      </trkpt>
      <trkpt lat="47.5874" lon="-3.07102">
        <ele>19.36</ele>
        <time>2022-05-19T15:09:13Z</time>
      </trkpt>
      <trkpt lat="47.58742" lon="-3.07103">
        <ele>17.92</ele>
        <time>2022-05-19T15:09:15Z</time>
      </trkpt>
      <trkpt lat="47.58746" lon="-3.07117">
        <ele>20.81</ele>
        <time>2022-05-19T15:09:25Z</time>
      </trkpt>
      <trkpt lat="47.58758" lon="-3.07137">
        <ele>20.32</ele>
        <time>2022-05-19T15:09:41Z</time>
      </trkpt>
      <trkpt lat="47.58767" lon="-3.07147">
        <ele>20.81</ele>
        <time>2022-05-19T15:09:52Z</time>
      </trkpt>
      <trkpt lat="47.58775" lon="-3.07161">
        <ele>21.29</ele>
        <time>2022-05-19T15:10:04Z</time>
      </trkpt>
      <trkpt lat="47.58784" lon="-3.0718">
        <ele>22.73</ele>
        <time>2022-05-19T15:10:21Z</time>
      </trkpt>
      <trkpt lat="47.58795" lon="-3.07198">
        <ele>22.73</ele>
        <time>2022-05-19T15:10:34Z</time>
      </trkpt>
      <trkpt lat="47.588" lon="-3.07216">
        <ele>23.21</ele>
        <time>2022-05-19T15:10:47Z</time>
      </trkpt>
      <trkpt lat="47.588" lon="-3.07224">
        <ele>25.61</ele>
        <time>2022-05-19T15:10:53Z</time>
      </trkpt>
      <trkpt lat="47.58791" lon="-3.07243">
        <ele>25.13</ele>
        <time>2022-05-19T15:11:06Z</time>
      </trkpt>
      <trkpt lat="47.58783" lon="-3.07269">
        <ele>26.57</ele>
        <time>2022-05-19T15:11:24Z</time>
      </trkpt>
      <trkpt lat="47.58778" lon="-3.07278">
        <ele>26.09</ele>
        <time>2022-05-19T15:11:31Z</time>
      </trkpt>
      <trkpt lat="47.58774" lon="-3.073">
        <ele>26.57</ele>
        <time>2022-05-19T15:11:46Z</time>
      </trkpt>
      <trkpt lat="47.58764" lon="-3.07327">
        <ele>26.57</ele>
        <time>2022-05-19T15:12:04Z</time>
      </trkpt>
      <trkpt lat="47.5876" lon="-3.07348">
        <ele>27.05</ele>
        <time>2022-05-19T15:12:19Z</time>
      </trkpt>
      <trkpt lat="47.58751" lon="-3.0736">
        <ele>26.09</ele>
        <time>2022-05-19T15:12:35Z</time>
      </trkpt>
      <trkpt lat="47.5875" lon="-3.07362">
        <ele>27.05</ele>
        <time>2022-05-19T15:12:40Z</time>
      </trkpt>
      <trkpt lat="47.5875" lon="-3.07378">
        <ele>25.13</ele>
        <time>2022-05-19T15:12:50Z</time>
      </trkpt>
      <trkpt lat="47.58754" lon="-3.074">
        <ele>25.61</ele>
        <time>2022-05-19T15:13:04Z</time>
      </trkpt>
      <trkpt lat="47.58757" lon="-3.07405">
        <ele>25.13</ele>
        <time>2022-05-19T15:13:09Z</time>
      </trkpt>
      <trkpt lat="47.58772" lon="-3.07425">
        <ele>24.17</ele>
        <time>2022-05-19T15:13:26Z</time>
      </trkpt>
      <trkpt lat="47.58777" lon="-3.07438">
        <ele>22.25</ele>
        <time>2022-05-19T15:13:40Z</time>
      </trkpt>
      <trkpt lat="47.58762" lon="-3.07452">
        <ele>20.81</ele>
        <time>2022-05-19T15:13:56Z</time>
      </trkpt>
      <trkpt lat="47.5875" lon="-3.07468">
        <ele>18.4</ele>
        <time>2022-05-19T15:14:10Z</time>
      </trkpt>
      <trkpt lat="47.58735" lon="-3.07491">
        <ele>17.44</ele>
        <time>2022-05-19T15:14:27Z</time>
      </trkpt>
      <trkpt lat="47.58728" lon="-3.07502">
        <ele>16</ele>
        <time>2022-05-19T15:14:35Z</time>
      </trkpt>
      <trkpt lat="47.58723" lon="-3.07501">
        <ele>15.04</ele>
        <time>2022-05-19T15:14:41Z</time>
      </trkpt>
      <trkpt lat="47.58706" lon="-3.07485">
        <ele>16.96</ele>
        <time>2022-05-19T15:15:00Z</time>
      </trkpt>
      <trkpt lat="47.58703" lon="-3.07483">
        <ele>16.48</ele>
        <time>2022-05-19T15:15:03Z</time>
      </trkpt>
      <trkpt lat="47.58688" lon="-3.07496">
        <ele>15.52</ele>
        <time>2022-05-19T15:15:18Z</time>
      </trkpt>
      <trkpt lat="47.58675" lon="-3.07514">
        <ele>13.12</ele>
        <time>2022-05-19T15:15:33Z</time>
      </trkpt>
      <trkpt lat="47.58661" lon="-3.07537">
        <ele>12.15</ele>
        <time>2022-05-19T15:15:50Z</time>
      </trkpt>
      <trkpt lat="47.58655" lon="-3.07556">
        <ele>10.71</ele>
        <time>2022-05-19T15:16:05Z</time>
      </trkpt>
      <trkpt lat="47.58642" lon="-3.07575">
        <ele>10.23</ele>
        <time>2022-05-19T15:16:18Z</time>
      </trkpt>
      <trkpt lat="47.58629" lon="-3.07591">
        <ele>8.31</ele>
        <time>2022-05-19T15:16:32Z</time>
      </trkpt>
      <trkpt lat="47.58621" lon="-3.07602">
        <ele>9.27</ele>
        <time>2022-05-19T15:16:40Z</time>
      </trkpt>
      <trkpt lat="47.5862" lon="-3.07605">
        <ele>8.79</ele>
        <time>2022-05-19T15:16:42Z</time>
      </trkpt>
      <trkpt lat="47.58619" lon="-3.07607">
        <ele>8.79</ele>
        <time>2022-05-19T15:16:43Z</time>
      </trkpt>
      <trkpt lat="47.58609" lon="-3.07631">
        <ele>8.31</ele>
        <time>2022-05-19T15:17:00Z</time>
      </trkpt>
      <trkpt lat="47.58606" lon="-3.07648">
        <ele>7.35</ele>
        <time>2022-05-19T15:17:11Z</time>
      </trkpt>
      <trkpt lat="47.58591" lon="-3.07639">
        <ele>8.31</ele>
        <time>2022-05-19T15:17:28Z</time>
      </trkpt>
      <trkpt lat="47.58573" lon="-3.07629">
        <ele>7.35</ele>
        <time>2022-05-19T15:17:44Z</time>
      </trkpt>
      <trkpt lat="47.5856" lon="-3.07619">
        <ele>8.79</ele>
        <time>2022-05-19T15:17:56Z</time>
      </trkpt>
      <trkpt lat="47.58545" lon="-3.07606">
        <ele>7.83</ele>
        <time>2022-05-19T15:18:11Z</time>
      </trkpt>
      <trkpt lat="47.58541" lon="-3.07604">
        <ele>8.31</ele>
        <time>2022-05-19T15:18:15Z</time>
      </trkpt>
      <trkpt lat="47.58536" lon="-3.07606">
        <ele>8.31</ele>
        <time>2022-05-19T15:18:20Z</time>
      </trkpt>
      <trkpt lat="47.5853" lon="-3.0761">
        <ele>8.79</ele>
        <time>2022-05-19T15:18:26Z</time>
      </trkpt>
      <trkpt lat="47.58512" lon="-3.07597">
        <ele>9.27</ele>
        <time>2022-05-19T15:18:42Z</time>
      </trkpt>
      <trkpt lat="47.58501" lon="-3.0759">
        <ele>7.83</ele>
        <time>2022-05-19T15:18:57Z</time>
      </trkpt>
      <trkpt lat="47.58498" lon="-3.07592">
        <ele>7.83</ele>
        <time>2022-05-19T15:19:18Z</time>
      </trkpt>
      <trkpt lat="47.585" lon="-3.07592">
        <ele>7.83</ele>
        <time>2022-05-19T15:19:33Z</time>
      </trkpt>
      <trkpt lat="47.58499" lon="-3.07589">
        <ele>8.31</ele>
        <time>2022-05-19T15:19:56Z</time>
      </trkpt>
      <trkpt lat="47.58498" lon="-3.07589">
        <ele>7.35</ele>
        <time>2022-05-19T15:20:12Z</time>
      </trkpt>
      <trkpt lat="47.58498" lon="-3.07588">
        <ele>13.12</ele>
        <time>2022-05-19T15:20:36Z</time>
      </trkpt>
      <trkpt lat="47.58498" lon="-3.07588">
        <ele>9.27</ele>
        <time>2022-05-19T15:20:37Z</time>
      </trkpt>
      <trkpt lat="47.58498" lon="-3.07588">
        <ele>7.83</ele>
        <time>2022-05-19T15:20:39Z</time>
      </trkpt>
      <trkpt lat="47.58499" lon="-3.07587">
        <ele>8.31</ele>
        <time>2022-05-19T15:20:58Z</time>
      </trkpt>
      <trkpt lat="47.58499" lon="-3.07588">
        <ele>6.87</ele>
        <time>2022-05-19T15:21:01Z</time>
      </trkpt>
    </trkseg>
  </trk>
</gpx>